<?xml version="1.0" encoding="utf-8"?>
<gpx xmlns:xsi="http://www.w3.org/2001/XMLSchema-instance" xmlns:xsd="http://www.w3.org/2001/XMLSchema" version="1.1" creator="Shapelink.com" xmlns="http://www.topografix.com/GPX/1/1" xmlns:gpxtpx="http://www.garmin.com/xmlschemas/TrackPointExtension/v1">
  <metadata>
    <name>Löpning 12.14 km, 2011-08-23</name>
    <desc></desc>
    <author><name>Alexander Engvall</name></author> 
    <time>2011-08-23T19:50:43Z</time>
  </metadata>
  <trk>
    <name>Löpning 12.14 km, 2011-08-23</name>
    <trkseg>
      <trkpt lat="59.4579614" lon="17.804334">
        <ele>27.0543</ele>
        <time>2011-08-23T19:50:43Z</time>
      </trkpt>
      <trkpt lat="59.4579445" lon="17.8043453">
        <ele>27.0543</ele>
        <time>2011-08-23T19:50:45Z</time>
      </trkpt>
      <trkpt lat="59.4578352" lon="17.8044685">
        <ele>30.8995</ele>
        <time>2011-08-23T19:50:50Z</time>
      </trkpt>
      <trkpt lat="59.4576294" lon="17.8046619">
        <ele>30.8995</ele>
        <time>2011-08-23T19:50:57Z</time>
      </trkpt>
      <trkpt lat="59.4574995" lon="17.8048375">
        <ele>30.4188</ele>
        <time>2011-08-23T19:51:02Z</time>
      </trkpt>
      <trkpt lat="59.4574037" lon="17.8050292">
        <ele>29.9381</ele>
        <time>2011-08-23T19:51:06Z</time>
      </trkpt>
      <trkpt lat="59.4573144" lon="17.8052124">
        <ele>29.9381</ele>
        <time>2011-08-23T19:51:10Z</time>
      </trkpt>
      <trkpt lat="59.4572167" lon="17.8053638">
        <ele>31.8607</ele>
        <time>2011-08-23T19:51:14Z</time>
      </trkpt>
      <trkpt lat="59.457144" lon="17.8054709">
        <ele>30.4188</ele>
        <time>2011-08-23T19:51:17Z</time>
      </trkpt>
      <trkpt lat="59.4569691" lon="17.8055037">
        <ele>29.4575</ele>
        <time>2011-08-23T19:51:22Z</time>
      </trkpt>
      <trkpt lat="59.4567785" lon="17.805381">
        <ele>28.4962</ele>
        <time>2011-08-23T19:51:28Z</time>
      </trkpt>
      <trkpt lat="59.4566152" lon="17.8053001">
        <ele>29.4575</ele>
        <time>2011-08-23T19:51:33Z</time>
      </trkpt>
      <trkpt lat="59.4565862" lon="17.8052735">
        <ele>29.4575</ele>
        <time>2011-08-23T19:51:34Z</time>
      </trkpt>
      <trkpt lat="59.4563976" lon="17.8051539">
        <ele>29.4575</ele>
        <time>2011-08-23T19:51:40Z</time>
      </trkpt>
      <trkpt lat="59.4562242" lon="17.8050145">
        <ele>30.8995</ele>
        <time>2011-08-23T19:51:46Z</time>
      </trkpt>
      <trkpt lat="59.4561626" lon="17.8049798">
        <ele>32.3416</ele>
        <time>2011-08-23T19:51:48Z</time>
      </trkpt>
      <trkpt lat="59.456009" lon="17.8048588">
        <ele>34.2642</ele>
        <time>2011-08-23T19:51:53Z</time>
      </trkpt>
      <trkpt lat="59.4557955" lon="17.8046747">
        <ele>35.7061</ele>
        <time>2011-08-23T19:52:00Z</time>
      </trkpt>
      <trkpt lat="59.4556373" lon="17.8045422">
        <ele>36.6675</ele>
        <time>2011-08-23T19:52:05Z</time>
      </trkpt>
      <trkpt lat="59.4554486" lon="17.8044178">
        <ele>38.5901</ele>
        <time>2011-08-23T19:52:11Z</time>
      </trkpt>
      <trkpt lat="59.4552276" lon="17.8042977">
        <ele>34.7449</ele>
        <time>2011-08-23T19:52:18Z</time>
      </trkpt>
      <trkpt lat="59.4550548" lon="17.8043302">
        <ele>33.7834</ele>
        <time>2011-08-23T19:52:23Z</time>
      </trkpt>
      <trkpt lat="59.4548638" lon="17.8044149">
        <ele>32.3416</ele>
        <time>2011-08-23T19:52:29Z</time>
      </trkpt>
      <trkpt lat="59.4546789" lon="17.8045692">
        <ele>31.3801</ele>
        <time>2011-08-23T19:52:35Z</time>
      </trkpt>
      <trkpt lat="59.4545443" lon="17.8047328">
        <ele>31.3801</ele>
        <time>2011-08-23T19:52:40Z</time>
      </trkpt>
      <trkpt lat="59.4543805" lon="17.8049462">
        <ele>30.8995</ele>
        <time>2011-08-23T19:52:46Z</time>
      </trkpt>
      <trkpt lat="59.4542277" lon="17.8051597">
        <ele>30.4188</ele>
        <time>2011-08-23T19:52:52Z</time>
      </trkpt>
      <trkpt lat="59.4541408" lon="17.8051617">
        <ele>30.4188</ele>
        <time>2011-08-23T19:52:55Z</time>
      </trkpt>
      <trkpt lat="59.4541521" lon="17.8049395">
        <ele>31.3801</ele>
        <time>2011-08-23T19:52:59Z</time>
      </trkpt>
      <trkpt lat="59.4543241" lon="17.8046417">
        <ele>32.8223</ele>
        <time>2011-08-23T19:53:06Z</time>
      </trkpt>
      <trkpt lat="59.4545173" lon="17.8044542">
        <ele>31.3801</ele>
        <time>2011-08-23T19:53:12Z</time>
      </trkpt>
      <trkpt lat="59.4547151" lon="17.8043055">
        <ele>32.3416</ele>
        <time>2011-08-23T19:53:18Z</time>
      </trkpt>
      <trkpt lat="59.454887" lon="17.8041894">
        <ele>32.8223</ele>
        <time>2011-08-23T19:53:23Z</time>
      </trkpt>
      <trkpt lat="59.4550388" lon="17.8039929">
        <ele>29.9381</ele>
        <time>2011-08-23T19:53:28Z</time>
      </trkpt>
      <trkpt lat="59.4550576" lon="17.8037464">
        <ele>27.5349</ele>
        <time>2011-08-23T19:53:32Z</time>
      </trkpt>
      <trkpt lat="59.4550361" lon="17.8035644">
        <ele>24.651</ele>
        <time>2011-08-23T19:53:36Z</time>
      </trkpt>
      <trkpt lat="59.454911" lon="17.803245">
        <ele>21.767</ele>
        <time>2011-08-23T19:53:41Z</time>
      </trkpt>
      <trkpt lat="59.4548562" lon="17.8030783">
        <ele>22.2476</ele>
        <time>2011-08-23T19:53:44Z</time>
      </trkpt>
      <trkpt lat="59.4547735" lon="17.8028142">
        <ele>21.2864</ele>
        <time>2011-08-23T19:53:49Z</time>
      </trkpt>
      <trkpt lat="59.4546797" lon="17.8024961">
        <ele>20.8057</ele>
        <time>2011-08-23T19:53:55Z</time>
      </trkpt>
      <trkpt lat="59.4545823" lon="17.8023645">
        <ele>21.2864</ele>
        <time>2011-08-23T19:53:59Z</time>
      </trkpt>
      <trkpt lat="59.4544796" lon="17.8022263">
        <ele>21.767</ele>
        <time>2011-08-23T19:54:03Z</time>
      </trkpt>
      <trkpt lat="59.4544135" lon="17.8020162">
        <ele>22.2476</ele>
        <time>2011-08-23T19:54:07Z</time>
      </trkpt>
      <trkpt lat="59.4544166" lon="17.8016958">
        <ele>20.325</ele>
        <time>2011-08-23T19:54:12Z</time>
      </trkpt>
      <trkpt lat="59.4544292" lon="17.8013262">
        <ele>21.767</ele>
        <time>2011-08-23T19:54:18Z</time>
      </trkpt>
      <trkpt lat="59.4544576" lon="17.8010411">
        <ele>21.2864</ele>
        <time>2011-08-23T19:54:23Z</time>
      </trkpt>
      <trkpt lat="59.4545126" lon="17.8008445">
        <ele>19.3638</ele>
        <time>2011-08-23T19:54:27Z</time>
      </trkpt>
      <trkpt lat="59.4546026" lon="17.8006151">
        <ele>18.8831</ele>
        <time>2011-08-23T19:54:32Z</time>
      </trkpt>
      <trkpt lat="59.4547115" lon="17.800335">
        <ele>18.8831</ele>
        <time>2011-08-23T19:54:38Z</time>
      </trkpt>
      <trkpt lat="59.4548173" lon="17.8000274">
        <ele>18.8831</ele>
        <time>2011-08-23T19:54:44Z</time>
      </trkpt>
      <trkpt lat="59.4548674" lon="17.7997214">
        <ele>18.8831</ele>
        <time>2011-08-23T19:54:49Z</time>
      </trkpt>
      <trkpt lat="59.454883" lon="17.7992735">
        <ele>19.3638</ele>
        <time>2011-08-23T19:54:56Z</time>
      </trkpt>
      <trkpt lat="59.4548384" lon="17.7989585">
        <ele>19.8444</ele>
        <time>2011-08-23T19:55:01Z</time>
      </trkpt>
      <trkpt lat="59.4547232" lon="17.7987509">
        <ele>18.8831</ele>
        <time>2011-08-23T19:55:06Z</time>
      </trkpt>
      <trkpt lat="59.4546042" lon="17.7986478">
        <ele>18.4023</ele>
        <time>2011-08-23T19:55:10Z</time>
      </trkpt>
      <trkpt lat="59.4544753" lon="17.798465">
        <ele>17.4412</ele>
        <time>2011-08-23T19:55:15Z</time>
      </trkpt>
      <trkpt lat="59.4543708" lon="17.7982671">
        <ele>15.999</ele>
        <time>2011-08-23T19:55:20Z</time>
      </trkpt>
      <trkpt lat="59.4543287" lon="17.7982014">
        <ele>15.5184</ele>
        <time>2011-08-23T19:55:22Z</time>
      </trkpt>
      <trkpt lat="59.4542431" lon="17.7980526">
        <ele>14.557</ele>
        <time>2011-08-23T19:55:26Z</time>
      </trkpt>
      <trkpt lat="59.4541583" lon="17.797892">
        <ele>13.1151</ele>
        <time>2011-08-23T19:55:30Z</time>
      </trkpt>
      <trkpt lat="59.4540438" lon="17.7976874">
        <ele>12.6344</ele>
        <time>2011-08-23T19:55:35Z</time>
      </trkpt>
      <trkpt lat="59.4539163" lon="17.7975533">
        <ele>12.6344</ele>
        <time>2011-08-23T19:55:40Z</time>
      </trkpt>
      <trkpt lat="59.4537813" lon="17.7974435">
        <ele>12.6344</ele>
        <time>2011-08-23T19:55:45Z</time>
      </trkpt>
      <trkpt lat="59.4536636" lon="17.7973797">
        <ele>12.6344</ele>
        <time>2011-08-23T19:55:49Z</time>
      </trkpt>
      <trkpt lat="59.4535237" lon="17.7972746">
        <ele>13.1151</ele>
        <time>2011-08-23T19:55:55Z</time>
      </trkpt>
      <trkpt lat="59.4533942" lon="17.7972241">
        <ele>14.557</ele>
        <time>2011-08-23T19:55:59Z</time>
      </trkpt>
      <trkpt lat="59.4532808" lon="17.7971543">
        <ele>16.9604</ele>
        <time>2011-08-23T19:56:03Z</time>
      </trkpt>
      <trkpt lat="59.4531683" lon="17.7971041">
        <ele>18.4023</ele>
        <time>2011-08-23T19:56:07Z</time>
      </trkpt>
      <trkpt lat="59.453017" lon="17.7970441">
        <ele>17.9218</ele>
        <time>2011-08-23T19:56:12Z</time>
      </trkpt>
      <trkpt lat="59.452874" lon="17.7970126">
        <ele>19.3638</ele>
        <time>2011-08-23T19:56:17Z</time>
      </trkpt>
      <trkpt lat="59.4526948" lon="17.7969397">
        <ele>19.8444</ele>
        <time>2011-08-23T19:56:23Z</time>
      </trkpt>
      <trkpt lat="59.4525655" lon="17.7968222">
        <ele>19.8444</ele>
        <time>2011-08-23T19:56:28Z</time>
      </trkpt>
      <trkpt lat="59.4524038" lon="17.7966534">
        <ele>18.8831</ele>
        <time>2011-08-23T19:56:34Z</time>
      </trkpt>
      <trkpt lat="59.4522482" lon="17.7964479">
        <ele>17.9218</ele>
        <time>2011-08-23T19:56:40Z</time>
      </trkpt>
      <trkpt lat="59.4520836" lon="17.7962251">
        <ele>18.8831</ele>
        <time>2011-08-23T19:56:46Z</time>
      </trkpt>
      <trkpt lat="59.4519831" lon="17.7961017">
        <ele>19.8444</ele>
        <time>2011-08-23T19:56:50Z</time>
      </trkpt>
      <trkpt lat="59.4518785" lon="17.7958864">
        <ele>21.767</ele>
        <time>2011-08-23T19:56:55Z</time>
      </trkpt>
      <trkpt lat="59.451774" lon="17.7957331">
        <ele>23.209</ele>
        <time>2011-08-23T19:56:59Z</time>
      </trkpt>
      <trkpt lat="59.4516818" lon="17.7955994">
        <ele>23.6896</ele>
        <time>2011-08-23T19:57:03Z</time>
      </trkpt>
      <trkpt lat="59.4516623" lon="17.7955745">
        <ele>24.1703</ele>
        <time>2011-08-23T19:57:04Z</time>
      </trkpt>
      <trkpt lat="59.4515159" lon="17.7956194">
        <ele>24.651</ele>
        <time>2011-08-23T19:57:10Z</time>
      </trkpt>
      <trkpt lat="59.4513847" lon="17.7957102">
        <ele>25.6123</ele>
        <time>2011-08-23T19:57:15Z</time>
      </trkpt>
      <trkpt lat="59.4512844" lon="17.7958194">
        <ele>28.0155</ele>
        <time>2011-08-23T19:57:19Z</time>
      </trkpt>
      <trkpt lat="59.4511532" lon="17.7960137">
        <ele>32.8223</ele>
        <time>2011-08-23T19:57:25Z</time>
      </trkpt>
      <trkpt lat="59.4510989" lon="17.7960516">
        <ele>34.2642</ele>
        <time>2011-08-23T19:57:27Z</time>
      </trkpt>
      <trkpt lat="59.4509689" lon="17.7961612">
        <ele>34.7449</ele>
        <time>2011-08-23T19:57:32Z</time>
      </trkpt>
      <trkpt lat="59.4508353" lon="17.7962502">
        <ele>39.0707</ele>
        <time>2011-08-23T19:57:37Z</time>
      </trkpt>
      <trkpt lat="59.4507223" lon="17.7962753">
        <ele>43.3966</ele>
        <time>2011-08-23T19:57:42Z</time>
      </trkpt>
      <trkpt lat="59.4505814" lon="17.7962494">
        <ele>39.0707</ele>
        <time>2011-08-23T19:57:47Z</time>
      </trkpt>
      <trkpt lat="59.4504408" lon="17.7962181">
        <ele>36.6675</ele>
        <time>2011-08-23T19:57:52Z</time>
      </trkpt>
      <trkpt lat="59.4502618" lon="17.796223">
        <ele>33.7834</ele>
        <time>2011-08-23T19:57:58Z</time>
      </trkpt>
      <trkpt lat="59.4501167" lon="17.7962383">
        <ele>33.7834</ele>
        <time>2011-08-23T19:58:03Z</time>
      </trkpt>
      <trkpt lat="59.4499343" lon="17.796267">
        <ele>34.2642</ele>
        <time>2011-08-23T19:58:10Z</time>
      </trkpt>
      <trkpt lat="59.4497966" lon="17.7963649">
        <ele>34.2642</ele>
        <time>2011-08-23T19:58:16Z</time>
      </trkpt>
      <trkpt lat="59.4496801" lon="17.7964554">
        <ele>34.7449</ele>
        <time>2011-08-23T19:58:20Z</time>
      </trkpt>
      <trkpt lat="59.4495703" lon="17.7965777">
        <ele>36.6675</ele>
        <time>2011-08-23T19:58:24Z</time>
      </trkpt>
      <trkpt lat="59.449479" lon="17.7967841">
        <ele>37.1481</ele>
        <time>2011-08-23T19:58:29Z</time>
      </trkpt>
      <trkpt lat="59.44943" lon="17.797055">
        <ele>37.6287</ele>
        <time>2011-08-23T19:58:34Z</time>
      </trkpt>
      <trkpt lat="59.4493874" lon="17.7973396">
        <ele>35.7061</ele>
        <time>2011-08-23T19:58:39Z</time>
      </trkpt>
      <trkpt lat="59.4493792" lon="17.7976284">
        <ele>38.1094</ele>
        <time>2011-08-23T19:58:44Z</time>
      </trkpt>
      <trkpt lat="59.4493553" lon="17.7979222">
        <ele>37.6287</ele>
        <time>2011-08-23T19:58:49Z</time>
      </trkpt>
      <trkpt lat="59.4493509" lon="17.7981856">
        <ele>38.5901</ele>
        <time>2011-08-23T19:58:54Z</time>
      </trkpt>
      <trkpt lat="59.4493113" lon="17.7983739">
        <ele>36.1868</ele>
        <time>2011-08-23T19:58:58Z</time>
      </trkpt>
      <trkpt lat="59.4493012" lon="17.7986167">
        <ele>33.7834</ele>
        <time>2011-08-23T19:59:03Z</time>
      </trkpt>
      <trkpt lat="59.4493537" lon="17.7988125">
        <ele>34.2642</ele>
        <time>2011-08-23T19:59:07Z</time>
      </trkpt>
      <trkpt lat="59.4494325" lon="17.7989944">
        <ele>34.2642</ele>
        <time>2011-08-23T19:59:13Z</time>
      </trkpt>
      <trkpt lat="59.4495628" lon="17.7990506">
        <ele>36.6675</ele>
        <time>2011-08-23T19:59:18Z</time>
      </trkpt>
      <trkpt lat="59.4496129" lon="17.7990518">
        <ele>38.1094</ele>
        <time>2011-08-23T19:59:20Z</time>
      </trkpt>
      <trkpt lat="59.4497882" lon="17.7991451">
        <ele>37.6287</ele>
        <time>2011-08-23T19:59:26Z</time>
      </trkpt>
      <trkpt lat="59.4499042" lon="17.7992848">
        <ele>37.1481</ele>
        <time>2011-08-23T19:59:31Z</time>
      </trkpt>
      <trkpt lat="59.4500219" lon="17.7994823">
        <ele>37.6287</ele>
        <time>2011-08-23T19:59:36Z</time>
      </trkpt>
      <trkpt lat="59.4501308" lon="17.799609">
        <ele>38.1094</ele>
        <time>2011-08-23T19:59:40Z</time>
      </trkpt>
      <trkpt lat="59.450281" lon="17.7996824">
        <ele>39.0707</ele>
        <time>2011-08-23T19:59:45Z</time>
      </trkpt>
      <trkpt lat="59.4503768" lon="17.7997201">
        <ele>39.5513</ele>
        <time>2011-08-23T19:59:49Z</time>
      </trkpt>
      <trkpt lat="59.4505098" lon="17.7998029">
        <ele>41.474</ele>
        <time>2011-08-23T19:59:54Z</time>
      </trkpt>
      <trkpt lat="59.45068" lon="17.7999823">
        <ele>39.0707</ele>
        <time>2011-08-23T19:59:59Z</time>
      </trkpt>
      <trkpt lat="59.450774" lon="17.8002263">
        <ele>37.1481</ele>
        <time>2011-08-23T20:00:03Z</time>
      </trkpt>
      <trkpt lat="59.4508154" lon="17.8004924">
        <ele>35.2255</ele>
        <time>2011-08-23T20:00:07Z</time>
      </trkpt>
      <trkpt lat="59.4508635" lon="17.8008466">
        <ele>34.2642</ele>
        <time>2011-08-23T20:00:12Z</time>
      </trkpt>
      <trkpt lat="59.4508323" lon="17.8011686">
        <ele>34.2642</ele>
        <time>2011-08-23T20:00:16Z</time>
      </trkpt>
      <trkpt lat="59.4508098" lon="17.8015145">
        <ele>32.3416</ele>
        <time>2011-08-23T20:00:21Z</time>
      </trkpt>
      <trkpt lat="59.4507525" lon="17.8018616">
        <ele>27.5349</ele>
        <time>2011-08-23T20:00:26Z</time>
      </trkpt>
      <trkpt lat="59.4507398" lon="17.801933">
        <ele>27.0543</ele>
        <time>2011-08-23T20:00:27Z</time>
      </trkpt>
      <trkpt lat="59.4506855" lon="17.8023583">
        <ele>24.1703</ele>
        <time>2011-08-23T20:00:33Z</time>
      </trkpt>
      <trkpt lat="59.4506318" lon="17.8026729">
        <ele>23.209</ele>
        <time>2011-08-23T20:00:38Z</time>
      </trkpt>
      <trkpt lat="59.4505608" lon="17.8029015">
        <ele>23.6896</ele>
        <time>2011-08-23T20:00:42Z</time>
      </trkpt>
      <trkpt lat="59.4504535" lon="17.803075">
        <ele>23.209</ele>
        <time>2011-08-23T20:00:46Z</time>
      </trkpt>
      <trkpt lat="59.450314" lon="17.8032461">
        <ele>24.651</ele>
        <time>2011-08-23T20:00:51Z</time>
      </trkpt>
      <trkpt lat="59.4501642" lon="17.8032788">
        <ele>25.1317</ele>
        <time>2011-08-23T20:00:56Z</time>
      </trkpt>
      <trkpt lat="59.4500834" lon="17.8031737">
        <ele>23.6896</ele>
        <time>2011-08-23T20:00:59Z</time>
      </trkpt>
      <trkpt lat="59.4500073" lon="17.8029711">
        <ele>27.0543</ele>
        <time>2011-08-23T20:01:04Z</time>
      </trkpt>
      <trkpt lat="59.4498949" lon="17.8027726">
        <ele>27.5349</ele>
        <time>2011-08-23T20:01:10Z</time>
      </trkpt>
      <trkpt lat="59.4498092" lon="17.802625">
        <ele>29.4575</ele>
        <time>2011-08-23T20:01:14Z</time>
      </trkpt>
      <trkpt lat="59.4497139" lon="17.802436">
        <ele>29.4575</ele>
        <time>2011-08-23T20:01:19Z</time>
      </trkpt>
      <trkpt lat="59.4496949" lon="17.8023987">
        <ele>28.9769</ele>
        <time>2011-08-23T20:01:20Z</time>
      </trkpt>
      <trkpt lat="59.4496043" lon="17.8022107">
        <ele>28.0155</ele>
        <time>2011-08-23T20:01:25Z</time>
      </trkpt>
      <trkpt lat="59.4494588" lon="17.8019781">
        <ele>28.0155</ele>
        <time>2011-08-23T20:01:31Z</time>
      </trkpt>
      <trkpt lat="59.4494056" lon="17.8018284">
        <ele>29.9381</ele>
        <time>2011-08-23T20:01:35Z</time>
      </trkpt>
      <trkpt lat="59.4493139" lon="17.8016666">
        <ele>32.8223</ele>
        <time>2011-08-23T20:01:39Z</time>
      </trkpt>
      <trkpt lat="59.449189" lon="17.8013912">
        <ele>39.0707</ele>
        <time>2011-08-23T20:01:46Z</time>
      </trkpt>
      <trkpt lat="59.4491668" lon="17.8013161">
        <ele>39.5513</ele>
        <time>2011-08-23T20:01:48Z</time>
      </trkpt>
      <trkpt lat="59.449043" lon="17.8011643">
        <ele>38.1094</ele>
        <time>2011-08-23T20:01:53Z</time>
      </trkpt>
      <trkpt lat="59.4489673" lon="17.8011027">
        <ele>36.6675</ele>
        <time>2011-08-23T20:01:56Z</time>
      </trkpt>
      <trkpt lat="59.4488879" lon="17.8010349">
        <ele>39.5513</ele>
        <time>2011-08-23T20:02:00Z</time>
      </trkpt>
      <trkpt lat="59.4487513" lon="17.800908">
        <ele>40.0321</ele>
        <time>2011-08-23T20:02:06Z</time>
      </trkpt>
      <trkpt lat="59.4486354" lon="17.800767">
        <ele>38.5901</ele>
        <time>2011-08-23T20:02:11Z</time>
      </trkpt>
      <trkpt lat="59.4485938" lon="17.800724">
        <ele>37.6287</ele>
        <time>2011-08-23T20:02:13Z</time>
      </trkpt>
      <trkpt lat="59.4484783" lon="17.800709">
        <ele>36.1868</ele>
        <time>2011-08-23T20:02:17Z</time>
      </trkpt>
      <trkpt lat="59.4483006" lon="17.8006884">
        <ele>30.8995</ele>
        <time>2011-08-23T20:02:23Z</time>
      </trkpt>
      <trkpt lat="59.4481928" lon="17.8006344">
        <ele>29.4575</ele>
        <time>2011-08-23T20:02:27Z</time>
      </trkpt>
      <trkpt lat="59.44808" lon="17.8005733">
        <ele>29.4575</ele>
        <time>2011-08-23T20:02:32Z</time>
      </trkpt>
      <trkpt lat="59.447939" lon="17.8005297">
        <ele>29.9381</ele>
        <time>2011-08-23T20:02:37Z</time>
      </trkpt>
      <trkpt lat="59.4477728" lon="17.8003826">
        <ele>29.4575</ele>
        <time>2011-08-23T20:02:43Z</time>
      </trkpt>
      <trkpt lat="59.4476449" lon="17.8002128">
        <ele>29.9381</ele>
        <time>2011-08-23T20:02:48Z</time>
      </trkpt>
      <trkpt lat="59.4476242" lon="17.800193">
        <ele>30.4188</ele>
        <time>2011-08-23T20:02:49Z</time>
      </trkpt>
      <trkpt lat="59.4475278" lon="17.8002504">
        <ele>32.3416</ele>
        <time>2011-08-23T20:02:53Z</time>
      </trkpt>
      <trkpt lat="59.4473763" lon="17.8004857">
        <ele>37.6287</ele>
        <time>2011-08-23T20:02:59Z</time>
      </trkpt>
      <trkpt lat="59.4473492" lon="17.8005094">
        <ele>38.1094</ele>
        <time>2011-08-23T20:03:00Z</time>
      </trkpt>
      <trkpt lat="59.447159" lon="17.8006618">
        <ele>42.916</ele>
        <time>2011-08-23T20:03:07Z</time>
      </trkpt>
      <trkpt lat="59.4469931" lon="17.8007888">
        <ele>45.7999</ele>
        <time>2011-08-23T20:03:13Z</time>
      </trkpt>
      <trkpt lat="59.4468761" lon="17.800895">
        <ele>44.8386</ele>
        <time>2011-08-23T20:03:17Z</time>
      </trkpt>
      <trkpt lat="59.4467275" lon="17.8008997">
        <ele>40.5128</ele>
        <time>2011-08-23T20:03:22Z</time>
      </trkpt>
      <trkpt lat="59.4465841" lon="17.8008494">
        <ele>41.474</ele>
        <time>2011-08-23T20:03:27Z</time>
      </trkpt>
      <trkpt lat="59.4464411" lon="17.8007342">
        <ele>43.3966</ele>
        <time>2011-08-23T20:03:32Z</time>
      </trkpt>
      <trkpt lat="59.4463109" lon="17.8005145">
        <ele>44.358</ele>
        <time>2011-08-23T20:03:38Z</time>
      </trkpt>
      <trkpt lat="59.4461792" lon="17.8002852">
        <ele>40.5128</ele>
        <time>2011-08-23T20:03:44Z</time>
      </trkpt>
      <trkpt lat="59.4461032" lon="17.8002056">
        <ele>38.5901</ele>
        <time>2011-08-23T20:03:47Z</time>
      </trkpt>
      <trkpt lat="59.4459732" lon="17.8002298">
        <ele>38.1094</ele>
        <time>2011-08-23T20:03:52Z</time>
      </trkpt>
      <trkpt lat="59.4458024" lon="17.8003049">
        <ele>36.6675</ele>
        <time>2011-08-23T20:03:57Z</time>
      </trkpt>
      <trkpt lat="59.4456192" lon="17.8003961">
        <ele>35.7061</ele>
        <time>2011-08-23T20:04:02Z</time>
      </trkpt>
      <trkpt lat="59.4455074" lon="17.8004526">
        <ele>34.7449</ele>
        <time>2011-08-23T20:04:05Z</time>
      </trkpt>
      <trkpt lat="59.4453542" lon="17.8005448">
        <ele>33.3029</ele>
        <time>2011-08-23T20:04:10Z</time>
      </trkpt>
      <trkpt lat="59.4451908" lon="17.8006412">
        <ele>32.8223</ele>
        <time>2011-08-23T20:04:15Z</time>
      </trkpt>
      <trkpt lat="59.445032" lon="17.80075">
        <ele>34.7449</ele>
        <time>2011-08-23T20:04:20Z</time>
      </trkpt>
      <trkpt lat="59.4450066" lon="17.800769">
        <ele>34.2642</ele>
        <time>2011-08-23T20:04:21Z</time>
      </trkpt>
      <trkpt lat="59.4449521" lon="17.8010202">
        <ele>34.2642</ele>
        <time>2011-08-23T20:04:26Z</time>
      </trkpt>
      <trkpt lat="59.4449025" lon="17.8012556">
        <ele>34.7449</ele>
        <time>2011-08-23T20:04:30Z</time>
      </trkpt>
      <trkpt lat="59.4448383" lon="17.801454">
        <ele>34.7449</ele>
        <time>2011-08-23T20:04:34Z</time>
      </trkpt>
      <trkpt lat="59.444818" lon="17.8016428">
        <ele>35.7061</ele>
        <time>2011-08-23T20:04:38Z</time>
      </trkpt>
      <trkpt lat="59.444804" lon="17.8018806">
        <ele>29.9381</ele>
        <time>2011-08-23T20:04:42Z</time>
      </trkpt>
      <trkpt lat="59.4447161" lon="17.802149">
        <ele>27.5349</ele>
        <time>2011-08-23T20:04:48Z</time>
      </trkpt>
      <trkpt lat="59.4446149" lon="17.802339">
        <ele>24.651</ele>
        <time>2011-08-23T20:04:53Z</time>
      </trkpt>
      <trkpt lat="59.4445017" lon="17.8026264">
        <ele>21.767</ele>
        <time>2011-08-23T20:04:59Z</time>
      </trkpt>
      <trkpt lat="59.4444026" lon="17.8027624">
        <ele>27.0543</ele>
        <time>2011-08-23T20:05:04Z</time>
      </trkpt>
      <trkpt lat="59.4443895" lon="17.8027846">
        <ele>29.4575</ele>
        <time>2011-08-23T20:05:05Z</time>
      </trkpt>
      <trkpt lat="59.444285" lon="17.8030021">
        <ele>36.1868</ele>
        <time>2011-08-23T20:05:11Z</time>
      </trkpt>
      <trkpt lat="59.4441354" lon="17.8032026">
        <ele>35.7061</ele>
        <time>2011-08-23T20:05:16Z</time>
      </trkpt>
      <trkpt lat="59.4440181" lon="17.8032737">
        <ele>35.2255</ele>
        <time>2011-08-23T20:05:21Z</time>
      </trkpt>
      <trkpt lat="59.4438813" lon="17.803496">
        <ele>36.6675</ele>
        <time>2011-08-23T20:05:27Z</time>
      </trkpt>
      <trkpt lat="59.4437645" lon="17.8036635">
        <ele>39.5513</ele>
        <time>2011-08-23T20:05:31Z</time>
      </trkpt>
      <trkpt lat="59.4437349" lon="17.803665">
        <ele>40.0321</ele>
        <time>2011-08-23T20:05:32Z</time>
      </trkpt>
      <trkpt lat="59.4435542" lon="17.8037464">
        <ele>40.5128</ele>
        <time>2011-08-23T20:05:38Z</time>
      </trkpt>
      <trkpt lat="59.4434496" lon="17.8038228">
        <ele>40.5128</ele>
        <time>2011-08-23T20:05:42Z</time>
      </trkpt>
      <trkpt lat="59.4434256" lon="17.8038363">
        <ele>40.5128</ele>
        <time>2011-08-23T20:05:43Z</time>
      </trkpt>
      <trkpt lat="59.4433086" lon="17.8039635">
        <ele>40.5128</ele>
        <time>2011-08-23T20:05:48Z</time>
      </trkpt>
      <trkpt lat="59.4431899" lon="17.8041228">
        <ele>37.1481</ele>
        <time>2011-08-23T20:05:52Z</time>
      </trkpt>
      <trkpt lat="59.44314" lon="17.8044044">
        <ele>37.1481</ele>
        <time>2011-08-23T20:05:57Z</time>
      </trkpt>
      <trkpt lat="59.4430667" lon="17.8046941">
        <ele>33.3029</ele>
        <time>2011-08-23T20:06:03Z</time>
      </trkpt>
      <trkpt lat="59.4429704" lon="17.8050571">
        <ele>30.4188</ele>
        <time>2011-08-23T20:06:10Z</time>
      </trkpt>
      <trkpt lat="59.4428898" lon="17.805153">
        <ele>29.9381</ele>
        <time>2011-08-23T20:06:13Z</time>
      </trkpt>
      <trkpt lat="59.4428335" lon="17.8051757">
        <ele>29.4575</ele>
        <time>2011-08-23T20:06:15Z</time>
      </trkpt>
      <trkpt lat="59.4427818" lon="17.805374">
        <ele>30.8995</ele>
        <time>2011-08-23T20:06:19Z</time>
      </trkpt>
      <trkpt lat="59.4427397" lon="17.8056364">
        <ele>30.8995</ele>
        <time>2011-08-23T20:06:24Z</time>
      </trkpt>
      <trkpt lat="59.4427507" lon="17.805931">
        <ele>33.3029</ele>
        <time>2011-08-23T20:06:30Z</time>
      </trkpt>
      <trkpt lat="59.4427745" lon="17.8061833">
        <ele>37.1481</ele>
        <time>2011-08-23T20:06:35Z</time>
      </trkpt>
      <trkpt lat="59.4427772" lon="17.8062846">
        <ele>35.2255</ele>
        <time>2011-08-23T20:06:37Z</time>
      </trkpt>
      <trkpt lat="59.4427626" lon="17.8064501">
        <ele>30.8995</ele>
        <time>2011-08-23T20:06:42Z</time>
      </trkpt>
      <trkpt lat="59.4427367" lon="17.806462">
        <ele>30.8995</ele>
        <time>2011-08-23T20:06:43Z</time>
      </trkpt>
      <trkpt lat="59.4426137" lon="17.8065148">
        <ele>35.7061</ele>
        <time>2011-08-23T20:06:48Z</time>
      </trkpt>
      <trkpt lat="59.4424827" lon="17.8065319">
        <ele>33.7834</ele>
        <time>2011-08-23T20:06:52Z</time>
      </trkpt>
      <trkpt lat="59.4423705" lon="17.8064893">
        <ele>31.8607</ele>
        <time>2011-08-23T20:06:57Z</time>
      </trkpt>
      <trkpt lat="59.4422584" lon="17.8064505">
        <ele>31.3801</ele>
        <time>2011-08-23T20:07:01Z</time>
      </trkpt>
      <trkpt lat="59.4422321" lon="17.8064442">
        <ele>31.3801</ele>
        <time>2011-08-23T20:07:02Z</time>
      </trkpt>
      <trkpt lat="59.4420477" lon="17.806334">
        <ele>33.3029</ele>
        <time>2011-08-23T20:07:08Z</time>
      </trkpt>
      <trkpt lat="59.4419406" lon="17.8062872">
        <ele>34.2642</ele>
        <time>2011-08-23T20:07:12Z</time>
      </trkpt>
      <trkpt lat="59.4417917" lon="17.8062194">
        <ele>33.7834</ele>
        <time>2011-08-23T20:07:16Z</time>
      </trkpt>
      <trkpt lat="59.4416562" lon="17.8061901">
        <ele>35.2255</ele>
        <time>2011-08-23T20:07:20Z</time>
      </trkpt>
      <trkpt lat="59.4415679" lon="17.8062019">
        <ele>35.2255</ele>
        <time>2011-08-23T20:07:23Z</time>
      </trkpt>
      <trkpt lat="59.4413935" lon="17.8063815">
        <ele>34.7449</ele>
        <time>2011-08-23T20:07:30Z</time>
      </trkpt>
      <trkpt lat="59.4412944" lon="17.8065196">
        <ele>34.2642</ele>
        <time>2011-08-23T20:07:34Z</time>
      </trkpt>
      <trkpt lat="59.4411206" lon="17.8067472">
        <ele>34.7449</ele>
        <time>2011-08-23T20:07:40Z</time>
      </trkpt>
      <trkpt lat="59.4409724" lon="17.806914">
        <ele>31.8607</ele>
        <time>2011-08-23T20:07:45Z</time>
      </trkpt>
      <trkpt lat="59.4408366" lon="17.8070575">
        <ele>34.2642</ele>
        <time>2011-08-23T20:07:49Z</time>
      </trkpt>
      <trkpt lat="59.440678" lon="17.8071629">
        <ele>36.6675</ele>
        <time>2011-08-23T20:07:54Z</time>
      </trkpt>
      <trkpt lat="59.4405508" lon="17.8072947">
        <ele>36.6675</ele>
        <time>2011-08-23T20:07:59Z</time>
      </trkpt>
      <trkpt lat="59.4404336" lon="17.8074421">
        <ele>38.1094</ele>
        <time>2011-08-23T20:08:04Z</time>
      </trkpt>
      <trkpt lat="59.4403001" lon="17.8075527">
        <ele>40.0321</ele>
        <time>2011-08-23T20:08:09Z</time>
      </trkpt>
      <trkpt lat="59.4401742" lon="17.8076928">
        <ele>42.4354</ele>
        <time>2011-08-23T20:08:14Z</time>
      </trkpt>
      <trkpt lat="59.4400319" lon="17.8077985">
        <ele>44.358</ele>
        <time>2011-08-23T20:08:19Z</time>
      </trkpt>
      <trkpt lat="59.4398234" lon="17.807986">
        <ele>44.8386</ele>
        <time>2011-08-23T20:08:26Z</time>
      </trkpt>
      <trkpt lat="59.4396887" lon="17.8080541">
        <ele>44.8386</ele>
        <time>2011-08-23T20:08:30Z</time>
      </trkpt>
      <trkpt lat="59.4396576" lon="17.8080435">
        <ele>44.8386</ele>
        <time>2011-08-23T20:08:31Z</time>
      </trkpt>
      <trkpt lat="59.4395406" lon="17.8079443">
        <ele>42.4354</ele>
        <time>2011-08-23T20:08:35Z</time>
      </trkpt>
      <trkpt lat="59.439442" lon="17.8078586">
        <ele>40.0321</ele>
        <time>2011-08-23T20:08:38Z</time>
      </trkpt>
      <trkpt lat="59.4393416" lon="17.8077042">
        <ele>36.6675</ele>
        <time>2011-08-23T20:08:42Z</time>
      </trkpt>
      <trkpt lat="59.4391836" lon="17.8075565">
        <ele>36.1868</ele>
        <time>2011-08-23T20:08:47Z</time>
      </trkpt>
      <trkpt lat="59.4390691" lon="17.8074571">
        <ele>35.2255</ele>
        <time>2011-08-23T20:08:51Z</time>
      </trkpt>
      <trkpt lat="59.4390384" lon="17.8074363">
        <ele>35.2255</ele>
        <time>2011-08-23T20:08:52Z</time>
      </trkpt>
      <trkpt lat="59.4389277" lon="17.807287">
        <ele>33.7834</ele>
        <time>2011-08-23T20:08:57Z</time>
      </trkpt>
      <trkpt lat="59.4389029" lon="17.807269">
        <ele>33.7834</ele>
        <time>2011-08-23T20:08:58Z</time>
      </trkpt>
      <trkpt lat="59.4387193" lon="17.8071898">
        <ele>32.8223</ele>
        <time>2011-08-23T20:09:04Z</time>
      </trkpt>
      <trkpt lat="59.4385703" lon="17.8070991">
        <ele>32.8223</ele>
        <time>2011-08-23T20:09:09Z</time>
      </trkpt>
      <trkpt lat="59.4384401" lon="17.8070344">
        <ele>32.8223</ele>
        <time>2011-08-23T20:09:14Z</time>
      </trkpt>
      <trkpt lat="59.4382802" lon="17.8069972">
        <ele>35.2255</ele>
        <time>2011-08-23T20:09:20Z</time>
      </trkpt>
      <trkpt lat="59.4381357" lon="17.8070645">
        <ele>35.2255</ele>
        <time>2011-08-23T20:09:24Z</time>
      </trkpt>
      <trkpt lat="59.4381052" lon="17.8070648">
        <ele>35.7061</ele>
        <time>2011-08-23T20:09:25Z</time>
      </trkpt>
      <trkpt lat="59.4379447" lon="17.8070991">
        <ele>35.2255</ele>
        <time>2011-08-23T20:09:30Z</time>
      </trkpt>
      <trkpt lat="59.4378428" lon="17.8071016">
        <ele>34.2642</ele>
        <time>2011-08-23T20:09:33Z</time>
      </trkpt>
      <trkpt lat="59.4376705" lon="17.8070637">
        <ele>35.7061</ele>
        <time>2011-08-23T20:09:38Z</time>
      </trkpt>
      <trkpt lat="59.4375347" lon="17.8070001">
        <ele>39.0707</ele>
        <time>2011-08-23T20:09:42Z</time>
      </trkpt>
      <trkpt lat="59.4374116" lon="17.8069468">
        <ele>39.5513</ele>
        <time>2011-08-23T20:09:46Z</time>
      </trkpt>
      <trkpt lat="59.4372818" lon="17.8068873">
        <ele>40.9934</ele>
        <time>2011-08-23T20:09:50Z</time>
      </trkpt>
      <trkpt lat="59.4371509" lon="17.8068137">
        <ele>41.474</ele>
        <time>2011-08-23T20:09:54Z</time>
      </trkpt>
      <trkpt lat="59.4370032" lon="17.8067607">
        <ele>40.5128</ele>
        <time>2011-08-23T20:09:59Z</time>
      </trkpt>
      <trkpt lat="59.4369151" lon="17.8067392">
        <ele>40.9934</ele>
        <time>2011-08-23T20:10:02Z</time>
      </trkpt>
      <trkpt lat="59.4367621" lon="17.8066965">
        <ele>41.474</ele>
        <time>2011-08-23T20:10:07Z</time>
      </trkpt>
      <trkpt lat="59.4365926" lon="17.8065832">
        <ele>41.9547</ele>
        <time>2011-08-23T20:10:13Z</time>
      </trkpt>
      <trkpt lat="59.4365582" lon="17.8065714">
        <ele>41.9547</ele>
        <time>2011-08-23T20:10:14Z</time>
      </trkpt>
      <trkpt lat="59.4363121" lon="17.806592">
        <ele>41.474</ele>
        <time>2011-08-23T20:10:21Z</time>
      </trkpt>
      <trkpt lat="59.4362217" lon="17.8065726">
        <ele>40.9934</ele>
        <time>2011-08-23T20:10:24Z</time>
      </trkpt>
      <trkpt lat="59.4361269" lon="17.8065495">
        <ele>40.5128</ele>
        <time>2011-08-23T20:10:27Z</time>
      </trkpt>
      <trkpt lat="59.4359435" lon="17.8065401">
        <ele>39.5513</ele>
        <time>2011-08-23T20:10:32Z</time>
      </trkpt>
      <trkpt lat="59.435799" lon="17.8064521">
        <ele>39.0707</ele>
        <time>2011-08-23T20:10:37Z</time>
      </trkpt>
      <trkpt lat="59.435619" lon="17.8063828">
        <ele>38.1094</ele>
        <time>2011-08-23T20:10:43Z</time>
      </trkpt>
      <trkpt lat="59.4354777" lon="17.8063359">
        <ele>39.0707</ele>
        <time>2011-08-23T20:10:48Z</time>
      </trkpt>
      <trkpt lat="59.4353807" lon="17.806319">
        <ele>39.0707</ele>
        <time>2011-08-23T20:10:51Z</time>
      </trkpt>
      <trkpt lat="59.4353179" lon="17.8063315">
        <ele>40.5128</ele>
        <time>2011-08-23T20:10:53Z</time>
      </trkpt>
      <trkpt lat="59.4351827" lon="17.8062787">
        <ele>41.9547</ele>
        <time>2011-08-23T20:10:58Z</time>
      </trkpt>
      <trkpt lat="59.4350256" lon="17.8062181">
        <ele>45.3192</ele>
        <time>2011-08-23T20:11:04Z</time>
      </trkpt>
      <trkpt lat="59.4349018" lon="17.8061275">
        <ele>45.3192</ele>
        <time>2011-08-23T20:11:08Z</time>
      </trkpt>
      <trkpt lat="59.4348287" lon="17.8058088">
        <ele>42.4354</ele>
        <time>2011-08-23T20:11:14Z</time>
      </trkpt>
      <trkpt lat="59.4347692" lon="17.8055368">
        <ele>40.9934</ele>
        <time>2011-08-23T20:11:19Z</time>
      </trkpt>
      <trkpt lat="59.4347962" lon="17.8053099">
        <ele>41.474</ele>
        <time>2011-08-23T20:11:23Z</time>
      </trkpt>
      <trkpt lat="59.4348698" lon="17.8051426">
        <ele>41.9547</ele>
        <time>2011-08-23T20:11:27Z</time>
      </trkpt>
      <trkpt lat="59.434993" lon="17.8049982">
        <ele>42.4354</ele>
        <time>2011-08-23T20:11:32Z</time>
      </trkpt>
      <trkpt lat="59.4350198" lon="17.804955">
        <ele>42.4354</ele>
        <time>2011-08-23T20:11:33Z</time>
      </trkpt>
      <trkpt lat="59.4351163" lon="17.8047224">
        <ele>42.4354</ele>
        <time>2011-08-23T20:11:38Z</time>
      </trkpt>
      <trkpt lat="59.435195" lon="17.8044806">
        <ele>42.916</ele>
        <time>2011-08-23T20:11:43Z</time>
      </trkpt>
      <trkpt lat="59.4352851" lon="17.8043164">
        <ele>42.4354</ele>
        <time>2011-08-23T20:11:47Z</time>
      </trkpt>
      <trkpt lat="59.4353593" lon="17.804118">
        <ele>39.5513</ele>
        <time>2011-08-23T20:11:51Z</time>
      </trkpt>
      <trkpt lat="59.4354347" lon="17.8039635">
        <ele>37.6287</ele>
        <time>2011-08-23T20:11:55Z</time>
      </trkpt>
      <trkpt lat="59.4354763" lon="17.8038933">
        <ele>37.1481</ele>
        <time>2011-08-23T20:11:57Z</time>
      </trkpt>
      <trkpt lat="59.4354498" lon="17.8036127">
        <ele>39.5513</ele>
        <time>2011-08-23T20:12:02Z</time>
      </trkpt>
      <trkpt lat="59.4353836" lon="17.8033358">
        <ele>43.3966</ele>
        <time>2011-08-23T20:12:07Z</time>
      </trkpt>
      <trkpt lat="59.4353856" lon="17.8030835">
        <ele>44.358</ele>
        <time>2011-08-23T20:12:11Z</time>
      </trkpt>
      <trkpt lat="59.4353851" lon="17.8030229">
        <ele>44.358</ele>
        <time>2011-08-23T20:12:12Z</time>
      </trkpt>
      <trkpt lat="59.4354135" lon="17.8027069">
        <ele>44.358</ele>
        <time>2011-08-23T20:12:17Z</time>
      </trkpt>
      <trkpt lat="59.4354098" lon="17.8026563">
        <ele>45.3192</ele>
        <time>2011-08-23T20:12:18Z</time>
      </trkpt>
      <trkpt lat="59.4352694" lon="17.8023832">
        <ele>41.474</ele>
        <time>2011-08-23T20:12:24Z</time>
      </trkpt>
      <trkpt lat="59.4351432" lon="17.8022182">
        <ele>38.5901</ele>
        <time>2011-08-23T20:12:28Z</time>
      </trkpt>
      <trkpt lat="59.4350326" lon="17.8021216">
        <ele>37.6287</ele>
        <time>2011-08-23T20:12:32Z</time>
      </trkpt>
      <trkpt lat="59.4348987" lon="17.8019128">
        <ele>36.6675</ele>
        <time>2011-08-23T20:12:37Z</time>
      </trkpt>
      <trkpt lat="59.4347991" lon="17.8017217">
        <ele>34.2642</ele>
        <time>2011-08-23T20:12:42Z</time>
      </trkpt>
      <trkpt lat="59.434704" lon="17.8015751">
        <ele>34.7449</ele>
        <time>2011-08-23T20:12:46Z</time>
      </trkpt>
      <trkpt lat="59.4346827" lon="17.8015512">
        <ele>34.7449</ele>
        <time>2011-08-23T20:12:47Z</time>
      </trkpt>
      <trkpt lat="59.4345726" lon="17.8014781">
        <ele>34.2642</ele>
        <time>2011-08-23T20:12:52Z</time>
      </trkpt>
      <trkpt lat="59.4344387" lon="17.8014342">
        <ele>35.7061</ele>
        <time>2011-08-23T20:12:57Z</time>
      </trkpt>
      <trkpt lat="59.4342805" lon="17.8014101">
        <ele>36.1868</ele>
        <time>2011-08-23T20:13:02Z</time>
      </trkpt>
      <trkpt lat="59.4341393" lon="17.8013579">
        <ele>36.1868</ele>
        <time>2011-08-23T20:13:07Z</time>
      </trkpt>
      <trkpt lat="59.4340263" lon="17.8014729">
        <ele>36.1868</ele>
        <time>2011-08-23T20:13:11Z</time>
      </trkpt>
      <trkpt lat="59.4339267" lon="17.8015533">
        <ele>37.6287</ele>
        <time>2011-08-23T20:13:16Z</time>
      </trkpt>
      <trkpt lat="59.4338259" lon="17.8015967">
        <ele>38.1094</ele>
        <time>2011-08-23T20:13:20Z</time>
      </trkpt>
      <trkpt lat="59.4337197" lon="17.801794">
        <ele>35.7061</ele>
        <time>2011-08-23T20:13:25Z</time>
      </trkpt>
      <trkpt lat="59.4336202" lon="17.8020506">
        <ele>34.2642</ele>
        <time>2011-08-23T20:13:30Z</time>
      </trkpt>
      <trkpt lat="59.4334954" lon="17.8021781">
        <ele>33.7834</ele>
        <time>2011-08-23T20:13:35Z</time>
      </trkpt>
      <trkpt lat="59.4334727" lon="17.8021901">
        <ele>33.7834</ele>
        <time>2011-08-23T20:13:36Z</time>
      </trkpt>
      <trkpt lat="59.4333897" lon="17.8023582">
        <ele>33.7834</ele>
        <time>2011-08-23T20:13:40Z</time>
      </trkpt>
      <trkpt lat="59.4333139" lon="17.8025812">
        <ele>33.3029</ele>
        <time>2011-08-23T20:13:45Z</time>
      </trkpt>
      <trkpt lat="59.4332561" lon="17.8027658">
        <ele>32.8223</ele>
        <time>2011-08-23T20:13:50Z</time>
      </trkpt>
      <trkpt lat="59.4331994" lon="17.8030183">
        <ele>33.3029</ele>
        <time>2011-08-23T20:13:56Z</time>
      </trkpt>
      <trkpt lat="59.4331233" lon="17.8032807">
        <ele>35.2255</ele>
        <time>2011-08-23T20:14:01Z</time>
      </trkpt>
      <trkpt lat="59.4330267" lon="17.8035021">
        <ele>35.7061</ele>
        <time>2011-08-23T20:14:06Z</time>
      </trkpt>
      <trkpt lat="59.4329447" lon="17.803744">
        <ele>36.1868</ele>
        <time>2011-08-23T20:14:11Z</time>
      </trkpt>
      <trkpt lat="59.4328728" lon="17.803951">
        <ele>37.1481</ele>
        <time>2011-08-23T20:14:16Z</time>
      </trkpt>
      <trkpt lat="59.4328166" lon="17.8041973">
        <ele>39.0707</ele>
        <time>2011-08-23T20:14:21Z</time>
      </trkpt>
      <trkpt lat="59.432792" lon="17.8044474">
        <ele>41.9547</ele>
        <time>2011-08-23T20:14:26Z</time>
      </trkpt>
      <trkpt lat="59.4327871" lon="17.8047104">
        <ele>42.916</ele>
        <time>2011-08-23T20:14:31Z</time>
      </trkpt>
      <trkpt lat="59.4327686" lon="17.8049953">
        <ele>44.358</ele>
        <time>2011-08-23T20:14:36Z</time>
      </trkpt>
      <trkpt lat="59.4327158" lon="17.8052215">
        <ele>42.916</ele>
        <time>2011-08-23T20:14:40Z</time>
      </trkpt>
      <trkpt lat="59.4326684" lon="17.8054271">
        <ele>43.8773</ele>
        <time>2011-08-23T20:14:45Z</time>
      </trkpt>
      <trkpt lat="59.4326075" lon="17.8056219">
        <ele>44.358</ele>
        <time>2011-08-23T20:14:49Z</time>
      </trkpt>
      <trkpt lat="59.4325235" lon="17.8060137">
        <ele>40.9934</ele>
        <time>2011-08-23T20:14:56Z</time>
      </trkpt>
      <trkpt lat="59.4324728" lon="17.8063215">
        <ele>39.5513</ele>
        <time>2011-08-23T20:15:01Z</time>
      </trkpt>
      <trkpt lat="59.4324072" lon="17.8066683">
        <ele>33.7834</ele>
        <time>2011-08-23T20:15:06Z</time>
      </trkpt>
      <trkpt lat="59.4323491" lon="17.8069327">
        <ele>30.8995</ele>
        <time>2011-08-23T20:15:11Z</time>
      </trkpt>
      <trkpt lat="59.4323151" lon="17.807211">
        <ele>30.4188</ele>
        <time>2011-08-23T20:15:16Z</time>
      </trkpt>
      <trkpt lat="59.4323107" lon="17.8075095">
        <ele>31.8607</ele>
        <time>2011-08-23T20:15:21Z</time>
      </trkpt>
      <trkpt lat="59.4323035" lon="17.8077868">
        <ele>32.3416</ele>
        <time>2011-08-23T20:15:25Z</time>
      </trkpt>
      <trkpt lat="59.4323012" lon="17.8079255">
        <ele>32.8223</ele>
        <time>2011-08-23T20:15:27Z</time>
      </trkpt>
      <trkpt lat="59.4322958" lon="17.8080726">
        <ele>32.8223</ele>
        <time>2011-08-23T20:15:29Z</time>
      </trkpt>
      <trkpt lat="59.4323383" lon="17.808365">
        <ele>34.2642</ele>
        <time>2011-08-23T20:15:34Z</time>
      </trkpt>
      <trkpt lat="59.4323308" lon="17.8087423">
        <ele>31.8607</ele>
        <time>2011-08-23T20:15:40Z</time>
      </trkpt>
      <trkpt lat="59.4323237" lon="17.8088101">
        <ele>31.8607</ele>
        <time>2011-08-23T20:15:41Z</time>
      </trkpt>
      <trkpt lat="59.432332" lon="17.8092333">
        <ele>30.4188</ele>
        <time>2011-08-23T20:15:47Z</time>
      </trkpt>
      <trkpt lat="59.432365" lon="17.8094585">
        <ele>30.8995</ele>
        <time>2011-08-23T20:15:51Z</time>
      </trkpt>
      <trkpt lat="59.432462" lon="17.8097058">
        <ele>31.8607</ele>
        <time>2011-08-23T20:15:56Z</time>
      </trkpt>
      <trkpt lat="59.4325661" lon="17.8099824">
        <ele>34.2642</ele>
        <time>2011-08-23T20:16:01Z</time>
      </trkpt>
      <trkpt lat="59.4326966" lon="17.8102806">
        <ele>32.8223</ele>
        <time>2011-08-23T20:16:07Z</time>
      </trkpt>
      <trkpt lat="59.4327654" lon="17.8106582">
        <ele>33.7834</ele>
        <time>2011-08-23T20:16:13Z</time>
      </trkpt>
      <trkpt lat="59.4327793" lon="17.8109582">
        <ele>34.2642</ele>
        <time>2011-08-23T20:16:17Z</time>
      </trkpt>
      <trkpt lat="59.4327639" lon="17.8112948">
        <ele>34.7449</ele>
        <time>2011-08-23T20:16:22Z</time>
      </trkpt>
      <trkpt lat="59.4326987" lon="17.8116036">
        <ele>34.7449</ele>
        <time>2011-08-23T20:16:27Z</time>
      </trkpt>
      <trkpt lat="59.4326083" lon="17.8119559">
        <ele>34.2642</ele>
        <time>2011-08-23T20:16:33Z</time>
      </trkpt>
      <trkpt lat="59.4325054" lon="17.8122829">
        <ele>36.1868</ele>
        <time>2011-08-23T20:16:39Z</time>
      </trkpt>
      <trkpt lat="59.4323883" lon="17.8126491">
        <ele>34.7449</ele>
        <time>2011-08-23T20:16:46Z</time>
      </trkpt>
      <trkpt lat="59.43231" lon="17.8129273">
        <ele>35.7061</ele>
        <time>2011-08-23T20:16:51Z</time>
      </trkpt>
      <trkpt lat="59.4321811" lon="17.8132954">
        <ele>35.7061</ele>
        <time>2011-08-23T20:16:58Z</time>
      </trkpt>
      <trkpt lat="59.4320397" lon="17.8136478">
        <ele>34.2642</ele>
        <time>2011-08-23T20:17:05Z</time>
      </trkpt>
      <trkpt lat="59.4318809" lon="17.8139887">
        <ele>33.7834</ele>
        <time>2011-08-23T20:17:12Z</time>
      </trkpt>
      <trkpt lat="59.4317365" lon="17.8142596">
        <ele>33.7834</ele>
        <time>2011-08-23T20:17:18Z</time>
      </trkpt>
      <trkpt lat="59.4316104" lon="17.8144782">
        <ele>34.2642</ele>
        <time>2011-08-23T20:17:23Z</time>
      </trkpt>
      <trkpt lat="59.431428" lon="17.8147419">
        <ele>32.3416</ele>
        <time>2011-08-23T20:17:30Z</time>
      </trkpt>
      <trkpt lat="59.4312989" lon="17.8149209">
        <ele>32.8223</ele>
        <time>2011-08-23T20:17:35Z</time>
      </trkpt>
      <trkpt lat="59.431169" lon="17.8150804">
        <ele>32.3416</ele>
        <time>2011-08-23T20:17:40Z</time>
      </trkpt>
      <trkpt lat="59.4309999" lon="17.8152593">
        <ele>31.8607</ele>
        <time>2011-08-23T20:17:46Z</time>
      </trkpt>
      <trkpt lat="59.4308691" lon="17.8154017">
        <ele>33.3029</ele>
        <time>2011-08-23T20:17:51Z</time>
      </trkpt>
      <trkpt lat="59.4307052" lon="17.8155965">
        <ele>32.8223</ele>
        <time>2011-08-23T20:17:57Z</time>
      </trkpt>
      <trkpt lat="59.4305781" lon="17.8157754">
        <ele>32.3416</ele>
        <time>2011-08-23T20:18:02Z</time>
      </trkpt>
      <trkpt lat="59.4304648" lon="17.816065">
        <ele>31.3801</ele>
        <time>2011-08-23T20:18:08Z</time>
      </trkpt>
      <trkpt lat="59.4303774" lon="17.816267">
        <ele>31.3801</ele>
        <time>2011-08-23T20:18:12Z</time>
      </trkpt>
      <trkpt lat="59.4303034" lon="17.8166972">
        <ele>30.8995</ele>
        <time>2011-08-23T20:18:19Z</time>
      </trkpt>
      <trkpt lat="59.4302852" lon="17.817005">
        <ele>29.9381</ele>
        <time>2011-08-23T20:18:24Z</time>
      </trkpt>
      <trkpt lat="59.4303167" lon="17.8172319">
        <ele>28.9769</ele>
        <time>2011-08-23T20:18:28Z</time>
      </trkpt>
      <trkpt lat="59.4303683" lon="17.8174536">
        <ele>27.5349</ele>
        <time>2011-08-23T20:18:32Z</time>
      </trkpt>
      <trkpt lat="59.4304164" lon="17.8177365">
        <ele>25.1317</ele>
        <time>2011-08-23T20:18:37Z</time>
      </trkpt>
      <trkpt lat="59.4304801" lon="17.8180867">
        <ele>21.767</ele>
        <time>2011-08-23T20:18:43Z</time>
      </trkpt>
      <trkpt lat="59.4304907" lon="17.8181472">
        <ele>21.2864</ele>
        <time>2011-08-23T20:18:44Z</time>
      </trkpt>
      <trkpt lat="59.4306303" lon="17.8182555">
        <ele>21.767</ele>
        <time>2011-08-23T20:18:49Z</time>
      </trkpt>
      <trkpt lat="59.4308347" lon="17.8183311">
        <ele>25.6123</ele>
        <time>2011-08-23T20:18:55Z</time>
      </trkpt>
      <trkpt lat="59.4310654" lon="17.8183983">
        <ele>27.0543</ele>
        <time>2011-08-23T20:19:02Z</time>
      </trkpt>
      <trkpt lat="59.4312825" lon="17.8184822">
        <ele>30.4188</ele>
        <time>2011-08-23T20:19:09Z</time>
      </trkpt>
      <trkpt lat="59.4314663" lon="17.8185495">
        <ele>32.8223</ele>
        <time>2011-08-23T20:19:15Z</time>
      </trkpt>
      <trkpt lat="59.4315911" lon="17.8185958">
        <ele>33.7834</ele>
        <time>2011-08-23T20:19:19Z</time>
      </trkpt>
      <trkpt lat="59.4317433" lon="17.8186487">
        <ele>33.3029</ele>
        <time>2011-08-23T20:19:24Z</time>
      </trkpt>
      <trkpt lat="59.431952" lon="17.8187243">
        <ele>34.2642</ele>
        <time>2011-08-23T20:19:31Z</time>
      </trkpt>
      <trkpt lat="59.4320967" lon="17.8187927">
        <ele>35.2255</ele>
        <time>2011-08-23T20:19:36Z</time>
      </trkpt>
      <trkpt lat="59.4322278" lon="17.8188588">
        <ele>36.1868</ele>
        <time>2011-08-23T20:19:40Z</time>
      </trkpt>
      <trkpt lat="59.432319" lon="17.8190275">
        <ele>35.2255</ele>
        <time>2011-08-23T20:19:44Z</time>
      </trkpt>
      <trkpt lat="59.4323719" lon="17.8192517">
        <ele>32.8223</ele>
        <time>2011-08-23T20:19:48Z</time>
      </trkpt>
      <trkpt lat="59.4324937" lon="17.819477">
        <ele>30.4188</ele>
        <time>2011-08-23T20:19:54Z</time>
      </trkpt>
      <trkpt lat="59.4325857" lon="17.8196821">
        <ele>28.9769</ele>
        <time>2011-08-23T20:19:59Z</time>
      </trkpt>
      <trkpt lat="59.4326864" lon="17.8198531">
        <ele>29.4575</ele>
        <time>2011-08-23T20:20:03Z</time>
      </trkpt>
      <trkpt lat="59.4327259" lon="17.8199585">
        <ele>29.4575</ele>
        <time>2011-08-23T20:20:05Z</time>
      </trkpt>
      <trkpt lat="59.4327567" lon="17.8200779">
        <ele>28.4962</ele>
        <time>2011-08-23T20:20:07Z</time>
      </trkpt>
      <trkpt lat="59.4327589" lon="17.8203274">
        <ele>27.0543</ele>
        <time>2011-08-23T20:20:11Z</time>
      </trkpt>
      <trkpt lat="59.4327482" lon="17.8205803">
        <ele>26.5736</ele>
        <time>2011-08-23T20:20:15Z</time>
      </trkpt>
      <trkpt lat="59.4327427" lon="17.8208013">
        <ele>27.0543</ele>
        <time>2011-08-23T20:20:19Z</time>
      </trkpt>
      <trkpt lat="59.4328156" lon="17.8208992">
        <ele>29.4575</ele>
        <time>2011-08-23T20:20:23Z</time>
      </trkpt>
      <trkpt lat="59.43288" lon="17.8209207">
        <ele>30.4188</ele>
        <time>2011-08-23T20:20:25Z</time>
      </trkpt>
      <trkpt lat="59.4330591" lon="17.8210344">
        <ele>33.7834</ele>
        <time>2011-08-23T20:20:31Z</time>
      </trkpt>
      <trkpt lat="59.433213" lon="17.8211342">
        <ele>34.7449</ele>
        <time>2011-08-23T20:20:36Z</time>
      </trkpt>
      <trkpt lat="59.4333695" lon="17.8212122">
        <ele>35.2255</ele>
        <time>2011-08-23T20:20:41Z</time>
      </trkpt>
      <trkpt lat="59.4335825" lon="17.8213292">
        <ele>35.2255</ele>
        <time>2011-08-23T20:20:48Z</time>
      </trkpt>
      <trkpt lat="59.4337343" lon="17.8214577">
        <ele>35.7061</ele>
        <time>2011-08-23T20:20:53Z</time>
      </trkpt>
      <trkpt lat="59.4339046" lon="17.8216386">
        <ele>36.1868</ele>
        <time>2011-08-23T20:20:59Z</time>
      </trkpt>
      <trkpt lat="59.4341056" lon="17.8218459">
        <ele>36.1868</ele>
        <time>2011-08-23T20:21:06Z</time>
      </trkpt>
      <trkpt lat="59.434243" lon="17.8220121">
        <ele>35.2255</ele>
        <time>2011-08-23T20:21:11Z</time>
      </trkpt>
      <trkpt lat="59.4343224" lon="17.8223165">
        <ele>34.2642</ele>
        <time>2011-08-23T20:21:16Z</time>
      </trkpt>
      <trkpt lat="59.434329" lon="17.8225674">
        <ele>32.3416</ele>
        <time>2011-08-23T20:21:20Z</time>
      </trkpt>
      <trkpt lat="59.4343179" lon="17.822872">
        <ele>29.4575</ele>
        <time>2011-08-23T20:21:25Z</time>
      </trkpt>
      <trkpt lat="59.4343185" lon="17.823304">
        <ele>24.1703</ele>
        <time>2011-08-23T20:21:32Z</time>
      </trkpt>
      <trkpt lat="59.4343608" lon="17.8236144">
        <ele>20.8057</ele>
        <time>2011-08-23T20:21:37Z</time>
      </trkpt>
      <trkpt lat="59.4345522" lon="17.8235004">
        <ele>20.325</ele>
        <time>2011-08-23T20:21:44Z</time>
      </trkpt>
      <trkpt lat="59.4346863" lon="17.8234253">
        <ele>20.8057</ele>
        <time>2011-08-23T20:21:49Z</time>
      </trkpt>
      <trkpt lat="59.4348198" lon="17.8233921">
        <ele>20.325</ele>
        <time>2011-08-23T20:21:54Z</time>
      </trkpt>
      <trkpt lat="59.4349614" lon="17.8233849">
        <ele>20.8057</ele>
        <time>2011-08-23T20:21:59Z</time>
      </trkpt>
      <trkpt lat="59.4350805" lon="17.8233739">
        <ele>23.209</ele>
        <time>2011-08-23T20:22:03Z</time>
      </trkpt>
      <trkpt lat="59.435268" lon="17.8232981">
        <ele>29.9381</ele>
        <time>2011-08-23T20:22:09Z</time>
      </trkpt>
      <trkpt lat="59.4354137" lon="17.8231958">
        <ele>37.6287</ele>
        <time>2011-08-23T20:22:14Z</time>
      </trkpt>
      <trkpt lat="59.4355579" lon="17.8231037">
        <ele>48.2034</ele>
        <time>2011-08-23T20:22:19Z</time>
      </trkpt>
      <trkpt lat="59.4357046" lon="17.8230248">
        <ele>56.3745</ele>
        <time>2011-08-23T20:22:24Z</time>
      </trkpt>
      <trkpt lat="59.4358296" lon="17.8229498">
        <ele>65.5071</ele>
        <time>2011-08-23T20:22:29Z</time>
      </trkpt>
      <trkpt lat="59.43597" lon="17.822876">
        <ele>69.3523</ele>
        <time>2011-08-23T20:22:34Z</time>
      </trkpt>
      <trkpt lat="59.4361148" lon="17.8227607">
        <ele>62.1423</ele>
        <time>2011-08-23T20:22:40Z</time>
      </trkpt>
      <trkpt lat="59.436215" lon="17.822717">
        <ele>58.2971</ele>
        <time>2011-08-23T20:22:44Z</time>
      </trkpt>
      <trkpt lat="59.4363439" lon="17.8226736">
        <ele>51.0872</ele>
        <time>2011-08-23T20:22:49Z</time>
      </trkpt>
      <trkpt lat="59.4364786" lon="17.8226294">
        <ele>45.7999</ele>
        <time>2011-08-23T20:22:54Z</time>
      </trkpt>
      <trkpt lat="59.4365961" lon="17.8226183">
        <ele>42.4354</ele>
        <time>2011-08-23T20:22:58Z</time>
      </trkpt>
      <trkpt lat="59.4367283" lon="17.8225334">
        <ele>40.9934</ele>
        <time>2011-08-23T20:23:03Z</time>
      </trkpt>
      <trkpt lat="59.4368754" lon="17.8224684">
        <ele>40.0321</ele>
        <time>2011-08-23T20:23:08Z</time>
      </trkpt>
      <trkpt lat="59.437021" lon="17.8223743">
        <ele>39.5513</ele>
        <time>2011-08-23T20:23:13Z</time>
      </trkpt>
      <trkpt lat="59.4371935" lon="17.8222485">
        <ele>36.6675</ele>
        <time>2011-08-23T20:23:19Z</time>
      </trkpt>
      <trkpt lat="59.4373499" lon="17.8220872">
        <ele>38.5901</ele>
        <time>2011-08-23T20:23:25Z</time>
      </trkpt>
      <trkpt lat="59.4375017" lon="17.8219411">
        <ele>46.7612</ele>
        <time>2011-08-23T20:23:31Z</time>
      </trkpt>
      <trkpt lat="59.4376358" lon="17.8218764">
        <ele>52.5292</ele>
        <time>2011-08-23T20:23:35Z</time>
      </trkpt>
      <trkpt lat="59.4377766" lon="17.8217645">
        <ele>58.7777</ele>
        <time>2011-08-23T20:23:39Z</time>
      </trkpt>
      <trkpt lat="59.4378967" lon="17.8216485">
        <ele>59.2584</ele>
        <time>2011-08-23T20:23:43Z</time>
      </trkpt>
      <trkpt lat="59.4380699" lon="17.8215175">
        <ele>68.3909</ele>
        <time>2011-08-23T20:23:48Z</time>
      </trkpt>
      <trkpt lat="59.4381925" lon="17.8213406">
        <ele>67.9103</ele>
        <time>2011-08-23T20:23:53Z</time>
      </trkpt>
      <trkpt lat="59.4383269" lon="17.8211947">
        <ele>58.2971</ele>
        <time>2011-08-23T20:23:58Z</time>
      </trkpt>
      <trkpt lat="59.4384377" lon="17.8211028">
        <ele>53.9712</ele>
        <time>2011-08-23T20:24:02Z</time>
      </trkpt>
      <trkpt lat="59.4384616" lon="17.8210896">
        <ele>52.5292</ele>
        <time>2011-08-23T20:24:03Z</time>
      </trkpt>
      <trkpt lat="59.4386228" lon="17.8209476">
        <ele>47.7225</ele>
        <time>2011-08-23T20:24:09Z</time>
      </trkpt>
      <trkpt lat="59.4387625" lon="17.8208127">
        <ele>46.7612</ele>
        <time>2011-08-23T20:24:14Z</time>
      </trkpt>
      <trkpt lat="59.4389013" lon="17.8206969">
        <ele>48.2034</ele>
        <time>2011-08-23T20:24:19Z</time>
      </trkpt>
      <trkpt lat="59.4390717" lon="17.8205616">
        <ele>47.2418</ele>
        <time>2011-08-23T20:24:25Z</time>
      </trkpt>
      <trkpt lat="59.4392539" lon="17.8205089">
        <ele>46.7612</ele>
        <time>2011-08-23T20:24:31Z</time>
      </trkpt>
      <trkpt lat="59.4393976" lon="17.8204736">
        <ele>48.2034</ele>
        <time>2011-08-23T20:24:36Z</time>
      </trkpt>
      <trkpt lat="59.4395515" lon="17.8204431">
        <ele>49.1646</ele>
        <time>2011-08-23T20:24:41Z</time>
      </trkpt>
      <trkpt lat="59.4397399" lon="17.820395">
        <ele>50.126</ele>
        <time>2011-08-23T20:24:47Z</time>
      </trkpt>
      <trkpt lat="59.4398944" lon="17.8202979">
        <ele>50.126</ele>
        <time>2011-08-23T20:24:52Z</time>
      </trkpt>
      <trkpt lat="59.4400849" lon="17.8201376">
        <ele>47.7225</ele>
        <time>2011-08-23T20:24:58Z</time>
      </trkpt>
      <trkpt lat="59.440114" lon="17.8201037">
        <ele>46.2806</ele>
        <time>2011-08-23T20:24:59Z</time>
      </trkpt>
      <trkpt lat="59.4402953" lon="17.8199437">
        <ele>40.9934</ele>
        <time>2011-08-23T20:25:05Z</time>
      </trkpt>
      <trkpt lat="59.4404324" lon="17.8198344">
        <ele>39.0707</ele>
        <time>2011-08-23T20:25:10Z</time>
      </trkpt>
      <trkpt lat="59.4405622" lon="17.8196748">
        <ele>38.5901</ele>
        <time>2011-08-23T20:25:15Z</time>
      </trkpt>
      <trkpt lat="59.440719" lon="17.8195521">
        <ele>36.6675</ele>
        <time>2011-08-23T20:25:20Z</time>
      </trkpt>
      <trkpt lat="59.440917" lon="17.8194287">
        <ele>35.7061</ele>
        <time>2011-08-23T20:25:26Z</time>
      </trkpt>
      <trkpt lat="59.4411454" lon="17.8193764">
        <ele>31.8607</ele>
        <time>2011-08-23T20:25:33Z</time>
      </trkpt>
      <trkpt lat="59.4412945" lon="17.8193495">
        <ele>30.8995</ele>
        <time>2011-08-23T20:25:37Z</time>
      </trkpt>
      <trkpt lat="59.4414572" lon="17.8193185">
        <ele>29.4575</ele>
        <time>2011-08-23T20:25:42Z</time>
      </trkpt>
      <trkpt lat="59.4416168" lon="17.8192647">
        <ele>28.4962</ele>
        <time>2011-08-23T20:25:47Z</time>
      </trkpt>
      <trkpt lat="59.4417484" lon="17.8192194">
        <ele>30.8995</ele>
        <time>2011-08-23T20:25:52Z</time>
      </trkpt>
      <trkpt lat="59.4418753" lon="17.8191694">
        <ele>32.3416</ele>
        <time>2011-08-23T20:25:56Z</time>
      </trkpt>
      <trkpt lat="59.4420637" lon="17.8191118">
        <ele>30.8995</ele>
        <time>2011-08-23T20:26:02Z</time>
      </trkpt>
      <trkpt lat="59.4422161" lon="17.8190361">
        <ele>32.3416</ele>
        <time>2011-08-23T20:26:07Z</time>
      </trkpt>
      <trkpt lat="59.4423279" lon="17.8189585">
        <ele>32.8223</ele>
        <time>2011-08-23T20:26:11Z</time>
      </trkpt>
      <trkpt lat="59.4424273" lon="17.8188667">
        <ele>34.2642</ele>
        <time>2011-08-23T20:26:15Z</time>
      </trkpt>
      <trkpt lat="59.4425842" lon="17.8188057">
        <ele>35.7061</ele>
        <time>2011-08-23T20:26:20Z</time>
      </trkpt>
      <trkpt lat="59.4426401" lon="17.8187834">
        <ele>36.1868</ele>
        <time>2011-08-23T20:26:22Z</time>
      </trkpt>
      <trkpt lat="59.4427678" lon="17.8186544">
        <ele>36.1868</ele>
        <time>2011-08-23T20:26:27Z</time>
      </trkpt>
      <trkpt lat="59.4428249" lon="17.8185922">
        <ele>35.2255</ele>
        <time>2011-08-23T20:26:29Z</time>
      </trkpt>
      <trkpt lat="59.442981" lon="17.8183767">
        <ele>34.2642</ele>
        <time>2011-08-23T20:26:35Z</time>
      </trkpt>
      <trkpt lat="59.4431157" lon="17.8181892">
        <ele>35.7061</ele>
        <time>2011-08-23T20:26:40Z</time>
      </trkpt>
      <trkpt lat="59.4433363" lon="17.8179303">
        <ele>36.1868</ele>
        <time>2011-08-23T20:26:47Z</time>
      </trkpt>
      <trkpt lat="59.4434495" lon="17.8177962">
        <ele>35.7061</ele>
        <time>2011-08-23T20:26:51Z</time>
      </trkpt>
      <trkpt lat="59.4435744" lon="17.8176954">
        <ele>35.7061</ele>
        <time>2011-08-23T20:26:55Z</time>
      </trkpt>
      <trkpt lat="59.4437091" lon="17.8176231">
        <ele>35.7061</ele>
        <time>2011-08-23T20:26:59Z</time>
      </trkpt>
      <trkpt lat="59.4438733" lon="17.8174411">
        <ele>35.7061</ele>
        <time>2011-08-23T20:27:04Z</time>
      </trkpt>
      <trkpt lat="59.4440198" lon="17.817275">
        <ele>34.2642</ele>
        <time>2011-08-23T20:27:09Z</time>
      </trkpt>
      <trkpt lat="59.4441778" lon="17.8171209">
        <ele>34.2642</ele>
        <time>2011-08-23T20:27:14Z</time>
      </trkpt>
      <trkpt lat="59.4443138" lon="17.817023">
        <ele>33.7834</ele>
        <time>2011-08-23T20:27:18Z</time>
      </trkpt>
      <trkpt lat="59.444492" lon="17.8169221">
        <ele>33.7834</ele>
        <time>2011-08-23T20:27:23Z</time>
      </trkpt>
      <trkpt lat="59.4446655" lon="17.8167984">
        <ele>34.2642</ele>
        <time>2011-08-23T20:27:29Z</time>
      </trkpt>
      <trkpt lat="59.4447931" lon="17.8167808">
        <ele>35.2255</ele>
        <time>2011-08-23T20:27:33Z</time>
      </trkpt>
      <trkpt lat="59.4449708" lon="17.8166495">
        <ele>37.1481</ele>
        <time>2011-08-23T20:27:39Z</time>
      </trkpt>
      <trkpt lat="59.4451106" lon="17.8165312">
        <ele>39.5513</ele>
        <time>2011-08-23T20:27:44Z</time>
      </trkpt>
      <trkpt lat="59.4452978" lon="17.8163922">
        <ele>39.5513</ele>
        <time>2011-08-23T20:27:49Z</time>
      </trkpt>
      <trkpt lat="59.4454457" lon="17.8161854">
        <ele>39.0707</ele>
        <time>2011-08-23T20:27:54Z</time>
      </trkpt>
      <trkpt lat="59.4455591" lon="17.8160031">
        <ele>35.7061</ele>
        <time>2011-08-23T20:27:58Z</time>
      </trkpt>
      <trkpt lat="59.4456676" lon="17.8157825">
        <ele>34.7449</ele>
        <time>2011-08-23T20:28:03Z</time>
      </trkpt>
      <trkpt lat="59.4457303" lon="17.8156027">
        <ele>35.7061</ele>
        <time>2011-08-23T20:28:07Z</time>
      </trkpt>
      <trkpt lat="59.4458178" lon="17.8154298">
        <ele>36.1868</ele>
        <time>2011-08-23T20:28:11Z</time>
      </trkpt>
      <trkpt lat="59.4458975" lon="17.815178">
        <ele>36.6675</ele>
        <time>2011-08-23T20:28:16Z</time>
      </trkpt>
      <trkpt lat="59.4459572" lon="17.8148973">
        <ele>38.1094</ele>
        <time>2011-08-23T20:28:22Z</time>
      </trkpt>
      <trkpt lat="59.4459241" lon="17.8146437">
        <ele>38.5901</ele>
        <time>2011-08-23T20:28:27Z</time>
      </trkpt>
      <trkpt lat="59.445871" lon="17.8143733">
        <ele>40.9934</ele>
        <time>2011-08-23T20:28:32Z</time>
      </trkpt>
      <trkpt lat="59.4458794" lon="17.8141669">
        <ele>42.4354</ele>
        <time>2011-08-23T20:28:36Z</time>
      </trkpt>
      <trkpt lat="59.445922" lon="17.813945">
        <ele>43.3966</ele>
        <time>2011-08-23T20:28:40Z</time>
      </trkpt>
      <trkpt lat="59.4458699" lon="17.8137302">
        <ele>41.9547</ele>
        <time>2011-08-23T20:28:45Z</time>
      </trkpt>
      <trkpt lat="59.4457753" lon="17.8135537">
        <ele>40.5128</ele>
        <time>2011-08-23T20:28:50Z</time>
      </trkpt>
      <trkpt lat="59.4456349" lon="17.8133322">
        <ele>39.5513</ele>
        <time>2011-08-23T20:28:56Z</time>
      </trkpt>
      <trkpt lat="59.4454638" lon="17.8130621">
        <ele>39.0707</ele>
        <time>2011-08-23T20:29:03Z</time>
      </trkpt>
      <trkpt lat="59.4453457" lon="17.8128058">
        <ele>41.474</ele>
        <time>2011-08-23T20:29:09Z</time>
      </trkpt>
      <trkpt lat="59.4452616" lon="17.8125843">
        <ele>41.9547</ele>
        <time>2011-08-23T20:29:14Z</time>
      </trkpt>
      <trkpt lat="59.4451863" lon="17.8123653">
        <ele>42.4354</ele>
        <time>2011-08-23T20:29:19Z</time>
      </trkpt>
      <trkpt lat="59.4451211" lon="17.8121156">
        <ele>42.916</ele>
        <time>2011-08-23T20:29:24Z</time>
      </trkpt>
      <trkpt lat="59.4450662" lon="17.8118737">
        <ele>43.8773</ele>
        <time>2011-08-23T20:29:28Z</time>
      </trkpt>
      <trkpt lat="59.44505" lon="17.8116411">
        <ele>43.8773</ele>
        <time>2011-08-23T20:29:32Z</time>
      </trkpt>
      <trkpt lat="59.4450342" lon="17.81153">
        <ele>43.8773</ele>
        <time>2011-08-23T20:29:34Z</time>
      </trkpt>
      <trkpt lat="59.4449997" lon="17.8112611">
        <ele>43.3966</ele>
        <time>2011-08-23T20:29:39Z</time>
      </trkpt>
      <trkpt lat="59.4449755" lon="17.8110301">
        <ele>43.3966</ele>
        <time>2011-08-23T20:29:43Z</time>
      </trkpt>
      <trkpt lat="59.4449648" lon="17.8109108">
        <ele>43.8773</ele>
        <time>2011-08-23T20:29:45Z</time>
      </trkpt>
      <trkpt lat="59.4449413" lon="17.8106371">
        <ele>44.358</ele>
        <time>2011-08-23T20:29:49Z</time>
      </trkpt>
      <trkpt lat="59.4449325" lon="17.8101671">
        <ele>45.7999</ele>
        <time>2011-08-23T20:29:56Z</time>
      </trkpt>
      <trkpt lat="59.4449443" lon="17.8099144">
        <ele>46.2806</ele>
        <time>2011-08-23T20:30:00Z</time>
      </trkpt>
      <trkpt lat="59.4449424" lon="17.8096172">
        <ele>45.7999</ele>
        <time>2011-08-23T20:30:05Z</time>
      </trkpt>
      <trkpt lat="59.4449603" lon="17.8093639">
        <ele>44.8386</ele>
        <time>2011-08-23T20:30:09Z</time>
      </trkpt>
      <trkpt lat="59.4450035" lon="17.809138">
        <ele>45.7999</ele>
        <time>2011-08-23T20:30:13Z</time>
      </trkpt>
      <trkpt lat="59.4450802" lon="17.8087341">
        <ele>44.358</ele>
        <time>2011-08-23T20:30:19Z</time>
      </trkpt>
      <trkpt lat="59.4451185" lon="17.808477">
        <ele>42.4354</ele>
        <time>2011-08-23T20:30:23Z</time>
      </trkpt>
      <trkpt lat="59.4451729" lon="17.8082614">
        <ele>40.9934</ele>
        <time>2011-08-23T20:30:27Z</time>
      </trkpt>
      <trkpt lat="59.4452634" lon="17.8079097">
        <ele>40.5128</ele>
        <time>2011-08-23T20:30:34Z</time>
      </trkpt>
      <trkpt lat="59.4453335" lon="17.8076555">
        <ele>40.5128</ele>
        <time>2011-08-23T20:30:39Z</time>
      </trkpt>
      <trkpt lat="59.4454099" lon="17.8073017">
        <ele>39.5513</ele>
        <time>2011-08-23T20:30:45Z</time>
      </trkpt>
      <trkpt lat="59.4454926" lon="17.806897">
        <ele>39.0707</ele>
        <time>2011-08-23T20:30:52Z</time>
      </trkpt>
      <trkpt lat="59.4455667" lon="17.8066246">
        <ele>38.5901</ele>
        <time>2011-08-23T20:30:57Z</time>
      </trkpt>
      <trkpt lat="59.4455981" lon="17.8065179">
        <ele>38.5901</ele>
        <time>2011-08-23T20:30:59Z</time>
      </trkpt>
      <trkpt lat="59.4455993" lon="17.8063681">
        <ele>38.1094</ele>
        <time>2011-08-23T20:31:02Z</time>
      </trkpt>
      <trkpt lat="59.445452" lon="17.8060273">
        <ele>39.0707</ele>
        <time>2011-08-23T20:31:09Z</time>
      </trkpt>
      <trkpt lat="59.4453718" lon="17.8057664">
        <ele>40.0321</ele>
        <time>2011-08-23T20:31:14Z</time>
      </trkpt>
      <trkpt lat="59.4453241" lon="17.8055441">
        <ele>40.0321</ele>
        <time>2011-08-23T20:31:18Z</time>
      </trkpt>
      <trkpt lat="59.4453099" lon="17.8052527">
        <ele>40.5128</ele>
        <time>2011-08-23T20:31:23Z</time>
      </trkpt>
      <trkpt lat="59.4453247" lon="17.8050088">
        <ele>39.5513</ele>
        <time>2011-08-23T20:31:27Z</time>
      </trkpt>
      <trkpt lat="59.4453583" lon="17.8047551">
        <ele>38.1094</ele>
        <time>2011-08-23T20:31:32Z</time>
      </trkpt>
      <trkpt lat="59.4453977" lon="17.8044226">
        <ele>39.0707</ele>
        <time>2011-08-23T20:31:37Z</time>
      </trkpt>
      <trkpt lat="59.4454245" lon="17.8041251">
        <ele>39.0707</ele>
        <time>2011-08-23T20:31:42Z</time>
      </trkpt>
      <trkpt lat="59.4454359" lon="17.8038206">
        <ele>39.0707</ele>
        <time>2011-08-23T20:31:47Z</time>
      </trkpt>
      <trkpt lat="59.4455111" lon="17.8036296">
        <ele>39.5513</ele>
        <time>2011-08-23T20:31:51Z</time>
      </trkpt>
      <trkpt lat="59.4455869" lon="17.8034455">
        <ele>40.0321</ele>
        <time>2011-08-23T20:31:55Z</time>
      </trkpt>
      <trkpt lat="59.4456013" lon="17.8031896">
        <ele>42.4354</ele>
        <time>2011-08-23T20:32:00Z</time>
      </trkpt>
      <trkpt lat="59.4455822" lon="17.8027656">
        <ele>44.8386</ele>
        <time>2011-08-23T20:32:06Z</time>
      </trkpt>
      <trkpt lat="59.4455039" lon="17.8025768">
        <ele>46.2806</ele>
        <time>2011-08-23T20:32:10Z</time>
      </trkpt>
      <trkpt lat="59.445388" lon="17.8023281">
        <ele>48.684</ele>
        <time>2011-08-23T20:32:15Z</time>
      </trkpt>
      <trkpt lat="59.4452795" lon="17.802108">
        <ele>46.2806</ele>
        <time>2011-08-23T20:32:20Z</time>
      </trkpt>
      <trkpt lat="59.4452024" lon="17.8018952">
        <ele>44.358</ele>
        <time>2011-08-23T20:32:24Z</time>
      </trkpt>
      <trkpt lat="59.445134" lon="17.8016708">
        <ele>45.7999</ele>
        <time>2011-08-23T20:32:28Z</time>
      </trkpt>
      <trkpt lat="59.4450341" lon="17.8014834">
        <ele>44.358</ele>
        <time>2011-08-23T20:32:32Z</time>
      </trkpt>
      <trkpt lat="59.4450004" lon="17.8012605">
        <ele>49.1646</ele>
        <time>2011-08-23T20:32:36Z</time>
      </trkpt>
      <trkpt lat="59.4449683" lon="17.8010058">
        <ele>50.6066</ele>
        <time>2011-08-23T20:32:40Z</time>
      </trkpt>
      <trkpt lat="59.4449144" lon="17.8007256">
        <ele>51.5679</ele>
        <time>2011-08-23T20:32:45Z</time>
      </trkpt>
      <trkpt lat="59.4448459" lon="17.800434">
        <ele>52.0486</ele>
        <time>2011-08-23T20:32:50Z</time>
      </trkpt>
      <trkpt lat="59.4447796" lon="17.8002029">
        <ele>50.6066</ele>
        <time>2011-08-23T20:32:55Z</time>
      </trkpt>
      <trkpt lat="59.4447123" lon="17.8000185">
        <ele>49.6453</ele>
        <time>2011-08-23T20:32:59Z</time>
      </trkpt>
      <trkpt lat="59.4446295" lon="17.7997698">
        <ele>49.6453</ele>
        <time>2011-08-23T20:33:04Z</time>
      </trkpt>
      <trkpt lat="59.4445438" lon="17.7995028">
        <ele>43.8773</ele>
        <time>2011-08-23T20:33:09Z</time>
      </trkpt>
      <trkpt lat="59.4445839" lon="17.7992275">
        <ele>40.0321</ele>
        <time>2011-08-23T20:33:14Z</time>
      </trkpt>
      <trkpt lat="59.444592" lon="17.7991794">
        <ele>40.9934</ele>
        <time>2011-08-23T20:33:15Z</time>
      </trkpt>
      <trkpt lat="59.4446569" lon="17.7989372">
        <ele>40.5128</ele>
        <time>2011-08-23T20:33:20Z</time>
      </trkpt>
      <trkpt lat="59.4447643" lon="17.798669">
        <ele>38.5901</ele>
        <time>2011-08-23T20:33:26Z</time>
      </trkpt>
      <trkpt lat="59.4447932" lon="17.7985487">
        <ele>38.1094</ele>
        <time>2011-08-23T20:33:29Z</time>
      </trkpt>
      <trkpt lat="59.4447626" lon="17.7983147">
        <ele>37.1481</ele>
        <time>2011-08-23T20:33:34Z</time>
      </trkpt>
      <trkpt lat="59.444698" lon="17.7981633">
        <ele>38.1094</ele>
        <time>2011-08-23T20:33:38Z</time>
      </trkpt>
      <trkpt lat="59.4445844" lon="17.7979436">
        <ele>38.5901</ele>
        <time>2011-08-23T20:33:43Z</time>
      </trkpt>
      <trkpt lat="59.4445267" lon="17.797795">
        <ele>40.0321</ele>
        <time>2011-08-23T20:33:47Z</time>
      </trkpt>
      <trkpt lat="59.4445021" lon="17.7976518">
        <ele>41.474</ele>
        <time>2011-08-23T20:33:50Z</time>
      </trkpt>
      <trkpt lat="59.4445031" lon="17.7975223">
        <ele>42.4354</ele>
        <time>2011-08-23T20:33:52Z</time>
      </trkpt>
      <trkpt lat="59.4445394" lon="17.7972772">
        <ele>43.8773</ele>
        <time>2011-08-23T20:33:57Z</time>
      </trkpt>
      <trkpt lat="59.4446006" lon="17.7970429">
        <ele>46.2806</ele>
        <time>2011-08-23T20:34:02Z</time>
      </trkpt>
      <trkpt lat="59.4446388" lon="17.7969134">
        <ele>46.7612</ele>
        <time>2011-08-23T20:34:05Z</time>
      </trkpt>
      <trkpt lat="59.4446436" lon="17.7965774">
        <ele>45.3192</ele>
        <time>2011-08-23T20:34:11Z</time>
      </trkpt>
      <trkpt lat="59.4445987" lon="17.7962913">
        <ele>45.3192</ele>
        <time>2011-08-23T20:34:16Z</time>
      </trkpt>
      <trkpt lat="59.4444773" lon="17.7963068">
        <ele>42.916</ele>
        <time>2011-08-23T20:34:20Z</time>
      </trkpt>
      <trkpt lat="59.4443872" lon="17.7964628">
        <ele>41.474</ele>
        <time>2011-08-23T20:34:24Z</time>
      </trkpt>
      <trkpt lat="59.4443784" lon="17.7965082">
        <ele>41.474</ele>
        <time>2011-08-23T20:34:25Z</time>
      </trkpt>
      <trkpt lat="59.4443245" lon="17.796855">
        <ele>39.0707</ele>
        <time>2011-08-23T20:34:31Z</time>
      </trkpt>
      <trkpt lat="59.444299" lon="17.7971399">
        <ele>35.7061</ele>
        <time>2011-08-23T20:34:36Z</time>
      </trkpt>
      <trkpt lat="59.4442949" lon="17.7971946">
        <ele>35.2255</ele>
        <time>2011-08-23T20:34:37Z</time>
      </trkpt>
      <trkpt lat="59.4442203" lon="17.7974528">
        <ele>32.8223</ele>
        <time>2011-08-23T20:34:42Z</time>
      </trkpt>
      <trkpt lat="59.4440623" lon="17.7976818">
        <ele>31.3801</ele>
        <time>2011-08-23T20:34:48Z</time>
      </trkpt>
      <trkpt lat="59.4439218" lon="17.7977361">
        <ele>30.4188</ele>
        <time>2011-08-23T20:34:52Z</time>
      </trkpt>
      <trkpt lat="59.443828" lon="17.7975992">
        <ele>29.9381</ele>
        <time>2011-08-23T20:34:56Z</time>
      </trkpt>
      <trkpt lat="59.4437912" lon="17.797316">
        <ele>29.9381</ele>
        <time>2011-08-23T20:35:01Z</time>
      </trkpt>
      <trkpt lat="59.4437984" lon="17.7970322">
        <ele>32.8223</ele>
        <time>2011-08-23T20:35:06Z</time>
      </trkpt>
      <trkpt lat="59.4437966" lon="17.7966843">
        <ele>32.8223</ele>
        <time>2011-08-23T20:35:11Z</time>
      </trkpt>
      <trkpt lat="59.4438671" lon="17.7963748">
        <ele>33.7834</ele>
        <time>2011-08-23T20:35:16Z</time>
      </trkpt>
      <trkpt lat="59.4439353" lon="17.7960608">
        <ele>30.4188</ele>
        <time>2011-08-23T20:35:21Z</time>
      </trkpt>
      <trkpt lat="59.4439892" lon="17.7958185">
        <ele>29.9381</ele>
        <time>2011-08-23T20:35:25Z</time>
      </trkpt>
      <trkpt lat="59.4440595" lon="17.7954991">
        <ele>28.4962</ele>
        <time>2011-08-23T20:35:30Z</time>
      </trkpt>
      <trkpt lat="59.4441104" lon="17.7952573">
        <ele>27.0543</ele>
        <time>2011-08-23T20:35:34Z</time>
      </trkpt>
      <trkpt lat="59.4441581" lon="17.7949983">
        <ele>28.0155</ele>
        <time>2011-08-23T20:35:38Z</time>
      </trkpt>
      <trkpt lat="59.4441937" lon="17.7945924">
        <ele>26.5736</ele>
        <time>2011-08-23T20:35:43Z</time>
      </trkpt>
      <trkpt lat="59.4442558" lon="17.7943219">
        <ele>25.6123</ele>
        <time>2011-08-23T20:35:47Z</time>
      </trkpt>
      <trkpt lat="59.4443758" lon="17.7940576">
        <ele>21.2864</ele>
        <time>2011-08-23T20:35:52Z</time>
      </trkpt>
      <trkpt lat="59.4444952" lon="17.7938293">
        <ele>17.4412</ele>
        <time>2011-08-23T20:35:57Z</time>
      </trkpt>
      <trkpt lat="59.4445787" lon="17.7936179">
        <ele>17.4412</ele>
        <time>2011-08-23T20:36:01Z</time>
      </trkpt>
      <trkpt lat="59.4445809" lon="17.7933779">
        <ele>15.0377</ele>
        <time>2011-08-23T20:36:06Z</time>
      </trkpt>
      <trkpt lat="59.4445404" lon="17.7930531">
        <ele>11.1925</ele>
        <time>2011-08-23T20:36:11Z</time>
      </trkpt>
      <trkpt lat="59.4445388" lon="17.7927617">
        <ele>12.1538</ele>
        <time>2011-08-23T20:36:15Z</time>
      </trkpt>
      <trkpt lat="59.4445508" lon="17.7926265">
        <ele>13.1151</ele>
        <time>2011-08-23T20:36:17Z</time>
      </trkpt>
      <trkpt lat="59.444675" lon="17.7924726">
        <ele>17.9218</ele>
        <time>2011-08-23T20:36:23Z</time>
      </trkpt>
      <trkpt lat="59.4448739" lon="17.7924608">
        <ele>21.2864</ele>
        <time>2011-08-23T20:36:28Z</time>
      </trkpt>
      <trkpt lat="59.4450102" lon="17.7924698">
        <ele>22.2476</ele>
        <time>2011-08-23T20:36:32Z</time>
      </trkpt>
      <trkpt lat="59.4452178" lon="17.7925081">
        <ele>20.8057</ele>
        <time>2011-08-23T20:36:37Z</time>
      </trkpt>
      <trkpt lat="59.4453999" lon="17.7925854">
        <ele>19.3638</ele>
        <time>2011-08-23T20:36:42Z</time>
      </trkpt>
      <trkpt lat="59.4455601" lon="17.7926337">
        <ele>17.9218</ele>
        <time>2011-08-23T20:36:46Z</time>
      </trkpt>
      <trkpt lat="59.4457924" lon="17.7926597">
        <ele>16.9604</ele>
        <time>2011-08-23T20:36:52Z</time>
      </trkpt>
      <trkpt lat="59.4459504" lon="17.7925839">
        <ele>15.0377</ele>
        <time>2011-08-23T20:36:56Z</time>
      </trkpt>
      <trkpt lat="59.4461425" lon="17.7925265">
        <ele>13.1151</ele>
        <time>2011-08-23T20:37:01Z</time>
      </trkpt>
      <trkpt lat="59.4462916" lon="17.7924449">
        <ele>11.1925</ele>
        <time>2011-08-23T20:37:06Z</time>
      </trkpt>
      <trkpt lat="59.4463893" lon="17.7923607">
        <ele>9.2699</ele>
        <time>2011-08-23T20:37:10Z</time>
      </trkpt>
      <trkpt lat="59.4465359" lon="17.7923777">
        <ele>9.75061</ele>
        <time>2011-08-23T20:37:15Z</time>
      </trkpt>
      <trkpt lat="59.4466653" lon="17.7924218">
        <ele>8.78918</ele>
        <time>2011-08-23T20:37:20Z</time>
      </trkpt>
      <trkpt lat="59.4467098" lon="17.792465">
        <ele>8.78918</ele>
        <time>2011-08-23T20:37:22Z</time>
      </trkpt>
      <trkpt lat="59.4468039" lon="17.7925259">
        <ele>8.30859</ele>
        <time>2011-08-23T20:37:26Z</time>
      </trkpt>
      <trkpt lat="59.446991" lon="17.7926516">
        <ele>8.78918</ele>
        <time>2011-08-23T20:37:33Z</time>
      </trkpt>
      <trkpt lat="59.4471407" lon="17.7927185">
        <ele>13.5958</ele>
        <time>2011-08-23T20:37:38Z</time>
      </trkpt>
      <trkpt lat="59.4472406" lon="17.7927283">
        <ele>16.9604</ele>
        <time>2011-08-23T20:37:43Z</time>
      </trkpt>
      <trkpt lat="59.4473496" lon="17.792817">
        <ele>20.8057</ele>
        <time>2011-08-23T20:37:48Z</time>
      </trkpt>
      <trkpt lat="59.4474911" lon="17.792947">
        <ele>24.651</ele>
        <time>2011-08-23T20:37:54Z</time>
      </trkpt>
      <trkpt lat="59.4476055" lon="17.7930656">
        <ele>26.0929</ele>
        <time>2011-08-23T20:37:59Z</time>
      </trkpt>
      <trkpt lat="59.4477556" lon="17.7931077">
        <ele>29.9381</ele>
        <time>2011-08-23T20:38:05Z</time>
      </trkpt>
      <trkpt lat="59.4479062" lon="17.7931481">
        <ele>28.0155</ele>
        <time>2011-08-23T20:38:10Z</time>
      </trkpt>
      <trkpt lat="59.4480478" lon="17.793288">
        <ele>25.1317</ele>
        <time>2011-08-23T20:38:15Z</time>
      </trkpt>
      <trkpt lat="59.4481601" lon="17.7934668">
        <ele>22.7283</ele>
        <time>2011-08-23T20:38:20Z</time>
      </trkpt>
      <trkpt lat="59.4482633" lon="17.7936137">
        <ele>21.2864</ele>
        <time>2011-08-23T20:38:24Z</time>
      </trkpt>
      <trkpt lat="59.4483898" lon="17.7937178">
        <ele>19.3638</ele>
        <time>2011-08-23T20:38:29Z</time>
      </trkpt>
      <trkpt lat="59.4485374" lon="17.7937793">
        <ele>21.2864</ele>
        <time>2011-08-23T20:38:34Z</time>
      </trkpt>
      <trkpt lat="59.4486518" lon="17.7938339">
        <ele>21.767</ele>
        <time>2011-08-23T20:38:38Z</time>
      </trkpt>
      <trkpt lat="59.448768" lon="17.7938521">
        <ele>21.2864</ele>
        <time>2011-08-23T20:38:42Z</time>
      </trkpt>
      <trkpt lat="59.4488847" lon="17.7938325">
        <ele>23.6896</ele>
        <time>2011-08-23T20:38:46Z</time>
      </trkpt>
      <trkpt lat="59.4489937" lon="17.7936671">
        <ele>28.0155</ele>
        <time>2011-08-23T20:38:50Z</time>
      </trkpt>
      <trkpt lat="59.4491344" lon="17.7935286">
        <ele>29.9381</ele>
        <time>2011-08-23T20:38:54Z</time>
      </trkpt>
      <trkpt lat="59.4492822" lon="17.7934714">
        <ele>31.3801</ele>
        <time>2011-08-23T20:38:59Z</time>
      </trkpt>
      <trkpt lat="59.4494235" lon="17.793432">
        <ele>30.4188</ele>
        <time>2011-08-23T20:39:04Z</time>
      </trkpt>
      <trkpt lat="59.4495391" lon="17.7933671">
        <ele>29.4575</ele>
        <time>2011-08-23T20:39:08Z</time>
      </trkpt>
      <trkpt lat="59.4496693" lon="17.7931802">
        <ele>25.6123</ele>
        <time>2011-08-23T20:39:12Z</time>
      </trkpt>
      <trkpt lat="59.4497789" lon="17.7930756">
        <ele>23.209</ele>
        <time>2011-08-23T20:39:16Z</time>
      </trkpt>
      <trkpt lat="59.4498132" lon="17.7930481">
        <ele>22.7283</ele>
        <time>2011-08-23T20:39:17Z</time>
      </trkpt>
      <trkpt lat="59.449932" lon="17.7929844">
        <ele>18.8831</ele>
        <time>2011-08-23T20:39:20Z</time>
      </trkpt>
      <trkpt lat="59.4500774" lon="17.7929436">
        <ele>16.4797</ele>
        <time>2011-08-23T20:39:24Z</time>
      </trkpt>
      <trkpt lat="59.4502068" lon="17.7929989">
        <ele>13.5958</ele>
        <time>2011-08-23T20:39:28Z</time>
      </trkpt>
      <trkpt lat="59.4502306" lon="17.7930036">
        <ele>13.5958</ele>
        <time>2011-08-23T20:39:29Z</time>
      </trkpt>
      <trkpt lat="59.4503588" lon="17.793174">
        <ele>12.1538</ele>
        <time>2011-08-23T20:39:34Z</time>
      </trkpt>
      <trkpt lat="59.4504167" lon="17.7932611">
        <ele>10.7118</ele>
        <time>2011-08-23T20:39:37Z</time>
      </trkpt>
      <trkpt lat="59.4505701" lon="17.7932393">
        <ele>8.30859</ele>
        <time>2011-08-23T20:39:42Z</time>
      </trkpt>
      <trkpt lat="59.4506957" lon="17.7932492">
        <ele>8.78918</ele>
        <time>2011-08-23T20:39:46Z</time>
      </trkpt>
      <trkpt lat="59.4508186" lon="17.79325">
        <ele>8.30859</ele>
        <time>2011-08-23T20:39:51Z</time>
      </trkpt>
      <trkpt lat="59.4509901" lon="17.7931857">
        <ele>8.30859</ele>
        <time>2011-08-23T20:39:57Z</time>
      </trkpt>
      <trkpt lat="59.4511721" lon="17.7931645">
        <ele>7.82788</ele>
        <time>2011-08-23T20:40:02Z</time>
      </trkpt>
      <trkpt lat="59.4513375" lon="17.7931697">
        <ele>7.34717</ele>
        <time>2011-08-23T20:40:07Z</time>
      </trkpt>
      <trkpt lat="59.4515651" lon="17.7931657">
        <ele>6.38586</ele>
        <time>2011-08-23T20:40:13Z</time>
      </trkpt>
      <trkpt lat="59.4517587" lon="17.7931346">
        <ele>7.82788</ele>
        <time>2011-08-23T20:40:18Z</time>
      </trkpt>
      <trkpt lat="59.4519303" lon="17.7930946">
        <ele>7.82788</ele>
        <time>2011-08-23T20:40:23Z</time>
      </trkpt>
      <trkpt lat="59.4520674" lon="17.7930663">
        <ele>6.38586</ele>
        <time>2011-08-23T20:40:27Z</time>
      </trkpt>
      <trkpt lat="59.4522083" lon="17.7929606">
        <ele>6.38586</ele>
        <time>2011-08-23T20:40:32Z</time>
      </trkpt>
      <trkpt lat="59.4523391" lon="17.7928267">
        <ele>5.42456</ele>
        <time>2011-08-23T20:40:37Z</time>
      </trkpt>
      <trkpt lat="59.4524445" lon="17.7927518">
        <ele>6.38586</ele>
        <time>2011-08-23T20:40:41Z</time>
      </trkpt>
      <trkpt lat="59.4526316" lon="17.7926021">
        <ele>6.38586</ele>
        <time>2011-08-23T20:40:48Z</time>
      </trkpt>
      <trkpt lat="59.4527111" lon="17.7924159">
        <ele>5.42456</ele>
        <time>2011-08-23T20:40:52Z</time>
      </trkpt>
      <trkpt lat="59.4528565" lon="17.7920556">
        <ele>5.90527</ele>
        <time>2011-08-23T20:40:59Z</time>
      </trkpt>
      <trkpt lat="59.4529273" lon="17.7918602">
        <ele>5.42456</ele>
        <time>2011-08-23T20:41:03Z</time>
      </trkpt>
      <trkpt lat="59.4530447" lon="17.7917285">
        <ele>5.42456</ele>
        <time>2011-08-23T20:41:07Z</time>
      </trkpt>
      <trkpt lat="59.4532208" lon="17.7916454">
        <ele>4.94385</ele>
        <time>2011-08-23T20:41:13Z</time>
      </trkpt>
      <trkpt lat="59.4533813" lon="17.7915707">
        <ele>6.38586</ele>
        <time>2011-08-23T20:41:18Z</time>
      </trkpt>
      <trkpt lat="59.45356" lon="17.791582">
        <ele>8.78918</ele>
        <time>2011-08-23T20:41:24Z</time>
      </trkpt>
      <trkpt lat="59.4537486" lon="17.7915665">
        <ele>7.82788</ele>
        <time>2011-08-23T20:41:30Z</time>
      </trkpt>
      <trkpt lat="59.453887" lon="17.791593">
        <ele>7.34717</ele>
        <time>2011-08-23T20:41:34Z</time>
      </trkpt>
      <trkpt lat="59.453946" lon="17.7918045">
        <ele>6.38586</ele>
        <time>2011-08-23T20:41:38Z</time>
      </trkpt>
      <trkpt lat="59.453945" lon="17.7921069">
        <ele>3.50195</ele>
        <time>2011-08-23T20:41:43Z</time>
      </trkpt>
      <trkpt lat="59.4539538" lon="17.7924119">
        <ele>1.09863</ele>
        <time>2011-08-23T20:41:48Z</time>
      </trkpt>
      <trkpt lat="59.4540235" lon="17.7927534">
        <ele>0</ele>
        <time>2011-08-23T20:41:54Z</time>
      </trkpt>
      <trkpt lat="59.4541087" lon="17.792931">
        <ele>0</ele>
        <time>2011-08-23T20:41:58Z</time>
      </trkpt>
      <trkpt lat="59.4542555" lon="17.793216">
        <ele>0</ele>
        <time>2011-08-23T20:42:04Z</time>
      </trkpt>
      <trkpt lat="59.4543741" lon="17.7934563">
        <ele>0</ele>
        <time>2011-08-23T20:42:09Z</time>
      </trkpt>
      <trkpt lat="59.4545034" lon="17.7936889">
        <ele>0</ele>
        <time>2011-08-23T20:42:14Z</time>
      </trkpt>
      <trkpt lat="59.4545882" lon="17.7939717">
        <ele>0.618042</ele>
        <time>2011-08-23T20:42:19Z</time>
      </trkpt>
      <trkpt lat="59.4546374" lon="17.794185">
        <ele>1.57935</ele>
        <time>2011-08-23T20:42:23Z</time>
      </trkpt>
      <trkpt lat="59.4547043" lon="17.7943445">
        <ele>1.57935</ele>
        <time>2011-08-23T20:42:27Z</time>
      </trkpt>
      <trkpt lat="59.4548446" lon="17.7944913">
        <ele>2.06006</ele>
        <time>2011-08-23T20:42:32Z</time>
      </trkpt>
      <trkpt lat="59.455031" lon="17.7945883">
        <ele>3.02124</ele>
        <time>2011-08-23T20:42:38Z</time>
      </trkpt>
      <trkpt lat="59.4552172" lon="17.7946579">
        <ele>3.02124</ele>
        <time>2011-08-23T20:42:44Z</time>
      </trkpt>
      <trkpt lat="59.4553646" lon="17.7947409">
        <ele>3.98267</ele>
        <time>2011-08-23T20:42:49Z</time>
      </trkpt>
      <trkpt lat="59.4555077" lon="17.7947462">
        <ele>5.42456</ele>
        <time>2011-08-23T20:42:54Z</time>
      </trkpt>
      <trkpt lat="59.4556323" lon="17.7947673">
        <ele>6.38586</ele>
        <time>2011-08-23T20:42:58Z</time>
      </trkpt>
      <trkpt lat="59.4557796" lon="17.7948646">
        <ele>6.86646</ele>
        <time>2011-08-23T20:43:03Z</time>
      </trkpt>
      <trkpt lat="59.4559305" lon="17.7950078">
        <ele>7.34717</ele>
        <time>2011-08-23T20:43:08Z</time>
      </trkpt>
      <trkpt lat="59.456108" lon="17.7951948">
        <ele>7.82788</ele>
        <time>2011-08-23T20:43:14Z</time>
      </trkpt>
      <trkpt lat="59.4562837" lon="17.7953895">
        <ele>9.75061</ele>
        <time>2011-08-23T20:43:20Z</time>
      </trkpt>
      <trkpt lat="59.4564412" lon="17.7955723">
        <ele>10.2312</ele>
        <time>2011-08-23T20:43:26Z</time>
      </trkpt>
      <trkpt lat="59.4565732" lon="17.7957157">
        <ele>9.75061</ele>
        <time>2011-08-23T20:43:31Z</time>
      </trkpt>
      <trkpt lat="59.4567386" lon="17.7958873">
        <ele>9.2699</ele>
        <time>2011-08-23T20:43:37Z</time>
      </trkpt>
      <trkpt lat="59.456896" lon="17.7960966">
        <ele>8.30859</ele>
        <time>2011-08-23T20:43:43Z</time>
      </trkpt>
      <trkpt lat="59.4570098" lon="17.7962281">
        <ele>7.34717</ele>
        <time>2011-08-23T20:43:47Z</time>
      </trkpt>
      <trkpt lat="59.4571383" lon="17.7962012">
        <ele>7.34717</ele>
        <time>2011-08-23T20:43:51Z</time>
      </trkpt>
      <trkpt lat="59.457285" lon="17.796121">
        <ele>7.34717</ele>
        <time>2011-08-23T20:43:56Z</time>
      </trkpt>
      <trkpt lat="59.4573509" lon="17.7961361">
        <ele>7.34717</ele>
        <time>2011-08-23T20:43:58Z</time>
      </trkpt>
      <trkpt lat="59.4574459" lon="17.7962234">
        <ele>6.86646</ele>
        <time>2011-08-23T20:44:01Z</time>
      </trkpt>
      <trkpt lat="59.457658" lon="17.796444">
        <ele>6.38586</ele>
        <time>2011-08-23T20:44:08Z</time>
      </trkpt>
      <trkpt lat="59.4577865" lon="17.7966395">
        <ele>6.86646</ele>
        <time>2011-08-23T20:44:13Z</time>
      </trkpt>
      <trkpt lat="59.4578071" lon="17.7966991">
        <ele>6.86646</ele>
        <time>2011-08-23T20:44:14Z</time>
      </trkpt>
      <trkpt lat="59.4577641" lon="17.797129">
        <ele>7.34717</ele>
        <time>2011-08-23T20:44:21Z</time>
      </trkpt>
      <trkpt lat="59.4576858" lon="17.797473">
        <ele>7.82788</ele>
        <time>2011-08-23T20:44:27Z</time>
      </trkpt>
      <trkpt lat="59.4576242" lon="17.7977364">
        <ele>7.34717</ele>
        <time>2011-08-23T20:44:32Z</time>
      </trkpt>
      <trkpt lat="59.457546" lon="17.7980454">
        <ele>6.86646</ele>
        <time>2011-08-23T20:44:38Z</time>
      </trkpt>
      <trkpt lat="59.4574594" lon="17.7983308">
        <ele>6.38586</ele>
        <time>2011-08-23T20:44:43Z</time>
      </trkpt>
      <trkpt lat="59.4573751" lon="17.7986074">
        <ele>6.86646</ele>
        <time>2011-08-23T20:44:48Z</time>
      </trkpt>
      <trkpt lat="59.4573352" lon="17.7988489">
        <ele>7.34717</ele>
        <time>2011-08-23T20:44:52Z</time>
      </trkpt>
      <trkpt lat="59.4572695" lon="17.7991881">
        <ele>5.90527</ele>
        <time>2011-08-23T20:44:58Z</time>
      </trkpt>
      <trkpt lat="59.4572031" lon="17.7995284">
        <ele>6.38586</ele>
        <time>2011-08-23T20:45:04Z</time>
      </trkpt>
      <trkpt lat="59.4571379" lon="17.7998241">
        <ele>6.86646</ele>
        <time>2011-08-23T20:45:09Z</time>
      </trkpt>
      <trkpt lat="59.457095" lon="17.8001647">
        <ele>8.78918</ele>
        <time>2011-08-23T20:45:15Z</time>
      </trkpt>
      <trkpt lat="59.4571146" lon="17.8003651">
        <ele>10.2312</ele>
        <time>2011-08-23T20:45:19Z</time>
      </trkpt>
      <trkpt lat="59.457177" lon="17.8006348">
        <ele>11.1925</ele>
        <time>2011-08-23T20:45:25Z</time>
      </trkpt>
      <trkpt lat="59.4572161" lon="17.8007732">
        <ele>11.1925</ele>
        <time>2011-08-23T20:45:28Z</time>
      </trkpt>
      <trkpt lat="59.4571762" lon="17.8008727">
        <ele>11.1925</ele>
        <time>2011-08-23T20:45:32Z</time>
      </trkpt>
      <trkpt lat="59.457171" lon="17.8009709">
        <ele>13.1151</ele>
        <time>2011-08-23T20:45:36Z</time>
      </trkpt>
      <trkpt lat="59.457199" lon="17.8010499">
        <ele>15.5184</ele>
        <time>2011-08-23T20:45:40Z</time>
      </trkpt>
      <trkpt lat="59.4572217" lon="17.8010483">
        <ele>15.5184</ele>
        <time>2011-08-23T20:45:41Z</time>
      </trkpt>
      <trkpt lat="59.4574689" lon="17.8009856">
        <ele>16.4797</ele>
        <time>2011-08-23T20:45:49Z</time>
      </trkpt>
      <trkpt lat="59.4576817" lon="17.8009477">
        <ele>15.0377</ele>
        <time>2011-08-23T20:45:55Z</time>
      </trkpt>
      <trkpt lat="59.4578456" lon="17.8008815">
        <ele>14.0764</ele>
        <time>2011-08-23T20:46:00Z</time>
      </trkpt>
      <trkpt lat="59.4579952" lon="17.8007976">
        <ele>13.1151</ele>
        <time>2011-08-23T20:46:05Z</time>
      </trkpt>
      <trkpt lat="59.4581589" lon="17.8007205">
        <ele>13.1151</ele>
        <time>2011-08-23T20:46:10Z</time>
      </trkpt>
      <trkpt lat="59.4583158" lon="17.8006464">
        <ele>13.5958</ele>
        <time>2011-08-23T20:46:15Z</time>
      </trkpt>
      <trkpt lat="59.4584745" lon="17.8005863">
        <ele>14.557</ele>
        <time>2011-08-23T20:46:20Z</time>
      </trkpt>
      <trkpt lat="59.4586079" lon="17.8005511">
        <ele>14.557</ele>
        <time>2011-08-23T20:46:24Z</time>
      </trkpt>
      <trkpt lat="59.45875" lon="17.8005269">
        <ele>14.0764</ele>
        <time>2011-08-23T20:46:29Z</time>
      </trkpt>
      <trkpt lat="59.4589509" lon="17.8004917">
        <ele>14.0764</ele>
        <time>2011-08-23T20:46:35Z</time>
      </trkpt>
      <trkpt lat="59.4591303" lon="17.800443">
        <ele>15.0377</ele>
        <time>2011-08-23T20:46:40Z</time>
      </trkpt>
      <trkpt lat="59.4593171" lon="17.8004176">
        <ele>15.5184</ele>
        <time>2011-08-23T20:46:46Z</time>
      </trkpt>
      <trkpt lat="59.4594575" lon="17.8003547">
        <ele>16.9604</ele>
        <time>2011-08-23T20:46:51Z</time>
      </trkpt>
      <trkpt lat="59.4596125" lon="17.8002799">
        <ele>16.4797</ele>
        <time>2011-08-23T20:46:56Z</time>
      </trkpt>
      <trkpt lat="59.4596735" lon="17.8002982">
        <ele>15.999</ele>
        <time>2011-08-23T20:46:58Z</time>
      </trkpt>
      <trkpt lat="59.4597922" lon="17.8003705">
        <ele>15.5184</ele>
        <time>2011-08-23T20:47:03Z</time>
      </trkpt>
      <trkpt lat="59.4598844" lon="17.800367">
        <ele>15.999</ele>
        <time>2011-08-23T20:47:08Z</time>
      </trkpt>
      <trkpt lat="59.4599978" lon="17.8003083">
        <ele>17.4412</ele>
        <time>2011-08-23T20:47:13Z</time>
      </trkpt>
      <trkpt lat="59.4600525" lon="17.8002862">
        <ele>17.9218</ele>
        <time>2011-08-23T20:47:15Z</time>
      </trkpt>
      <trkpt lat="59.4601903" lon="17.800421">
        <ele>16.9604</ele>
        <time>2011-08-23T20:47:21Z</time>
      </trkpt>
      <trkpt lat="59.4602361" lon="17.8004722">
        <ele>17.4412</ele>
        <time>2011-08-23T20:47:23Z</time>
      </trkpt>
      <trkpt lat="59.4602967" lon="17.8006331">
        <ele>18.4023</ele>
        <time>2011-08-23T20:47:28Z</time>
      </trkpt>
      <trkpt lat="59.4602277" lon="17.8006414">
        <ele>19.3638</ele>
        <time>2011-08-23T20:47:31Z</time>
      </trkpt>
      <trkpt lat="59.4602028" lon="17.8006407">
        <ele>19.8444</ele>
        <time>2011-08-23T20:47:32Z</time>
      </trkpt>
      <trkpt lat="59.4599987" lon="17.8006696">
        <ele>20.8057</ele>
        <time>2011-08-23T20:47:39Z</time>
      </trkpt>
      <trkpt lat="59.4598429" lon="17.8006986">
        <ele>21.767</ele>
        <time>2011-08-23T20:47:44Z</time>
      </trkpt>
      <trkpt lat="59.4596947" lon="17.8007165">
        <ele>21.767</ele>
        <time>2011-08-23T20:47:49Z</time>
      </trkpt>
      <trkpt lat="59.4595658" lon="17.8007546">
        <ele>22.2476</ele>
        <time>2011-08-23T20:47:53Z</time>
      </trkpt>
      <trkpt lat="59.4593772" lon="17.8007811">
        <ele>22.7283</ele>
        <time>2011-08-23T20:47:59Z</time>
      </trkpt>
      <trkpt lat="59.4591969" lon="17.8008186">
        <ele>22.2476</ele>
        <time>2011-08-23T20:48:05Z</time>
      </trkpt>
      <trkpt lat="59.4590058" lon="17.8008632">
        <ele>22.7283</ele>
        <time>2011-08-23T20:48:12Z</time>
      </trkpt>
      <trkpt lat="59.4588717" lon="17.8009038">
        <ele>23.209</ele>
        <time>2011-08-23T20:48:17Z</time>
      </trkpt>
      <trkpt lat="59.4587401" lon="17.8009396">
        <ele>22.7283</ele>
        <time>2011-08-23T20:48:22Z</time>
      </trkpt>
      <trkpt lat="59.4586189" lon="17.8010083">
        <ele>23.209</ele>
        <time>2011-08-23T20:48:27Z</time>
      </trkpt>
      <trkpt lat="59.4585009" lon="17.8011461">
        <ele>24.1703</ele>
        <time>2011-08-23T20:48:32Z</time>
      </trkpt>
      <trkpt lat="59.4583581" lon="17.8014026">
        <ele>23.6896</ele>
        <time>2011-08-23T20:48:39Z</time>
      </trkpt>
      <trkpt lat="59.4583379" lon="17.8014456">
        <ele>23.209</ele>
        <time>2011-08-23T20:48:40Z</time>
      </trkpt>
      <trkpt lat="59.4583196" lon="17.8017869">
        <ele>22.2476</ele>
        <time>2011-08-23T20:48:45Z</time>
      </trkpt>
      <trkpt lat="59.4583175" lon="17.8021043">
        <ele>20.325</ele>
        <time>2011-08-23T20:48:49Z</time>
      </trkpt>
      <trkpt lat="59.4583908" lon="17.8024785">
        <ele>19.3638</ele>
        <time>2011-08-23T20:48:55Z</time>
      </trkpt>
      <trkpt lat="59.4584255" lon="17.8027878">
        <ele>19.8444</ele>
        <time>2011-08-23T20:49:01Z</time>
      </trkpt>
      <trkpt lat="59.4584215" lon="17.80285">
        <ele>20.325</ele>
        <time>2011-08-23T20:49:02Z</time>
      </trkpt>
      <trkpt lat="59.4584013" lon="17.8031088">
        <ele>22.2476</ele>
        <time>2011-08-23T20:49:06Z</time>
      </trkpt>
      <trkpt lat="59.4584094" lon="17.8033828">
        <ele>24.651</ele>
        <time>2011-08-23T20:49:11Z</time>
      </trkpt>
      <trkpt lat="59.4584184" lon="17.803499">
        <ele>25.6123</ele>
        <time>2011-08-23T20:49:13Z</time>
      </trkpt>
      <trkpt lat="59.4583872" lon="17.8037381">
        <ele>25.1317</ele>
        <time>2011-08-23T20:49:17Z</time>
      </trkpt>
      <trkpt lat="59.4583369" lon="17.8041035">
        <ele>24.1703</ele>
        <time>2011-08-23T20:49:23Z</time>
      </trkpt>
      <trkpt lat="59.4583556" lon="17.8043146">
        <ele>26.0929</ele>
        <time>2011-08-23T20:49:27Z</time>
      </trkpt>
      <trkpt lat="59.4585029" lon="17.8043345">
        <ele>26.5736</ele>
        <time>2011-08-23T20:49:32Z</time>
      </trkpt>
      <trkpt lat="59.4587423" lon="17.8042535">
        <ele>22.2476</ele>
        <time>2011-08-23T20:49:39Z</time>
      </trkpt>
      <trkpt lat="59.4588349" lon="17.8042215">
        <ele>22.7283</ele>
        <time>2011-08-23T20:49:42Z</time>
      </trkpt>
    </trkseg>
  </trk>
</gpx>